<?xml version="1.0" encoding="UTF-8" standalone="no" ?>
<gpx xmlns="http://www.topografix.com/GPX/1/1" xmlns:xsi="http://www.w3.org/2001/XMLSchema-instance" xsi:schemaLocation="http://www.topografix.com/GPX/1/1 http://www.topografix.com/GPX/1/1/gpx.xsd" version="1.1" creator="VisuGPX - https://www.visugpx.com">
  <metadata>
    <name>2025-04-10-46-Les gariottes de Montcabrier</name>
    <desc><![CDATA[Départ: parking de la bascule, à gauche de l'église.
12 km avec 314 m de dénivelé positif
Temps gris mais pas de pluie

Pour cette boucle ouverte balisée par "copines et copains de bois", ils ont assuré !
Balisage nickel, ouverture des chemins parfaite. 
Sportive juste ce qu'il faut. Pour commencer, on contourne Montcabrier, on dit bonjour à une 1ère gariotte avant d'attaquer la montée vers la palombière. Une fois sur le plateau, c'est une succession de montées et de descentes, la plus spectaculaire étant celle qui passe à la source captée et au lavoir.
La fin du retour est relativement facile avec quelques belles gariottes.
[YouTube]4NMZOlP7GrU|800[/YouTube]
]]></desc>
  </metadata>
  <trk>
    <name><![CDATA[46-RL-Montcabrier-les gariottes-28-10-23]]></name>
    <trkseg>
      <trkpt lat="44.54211" lon="1.07365">
        <ele>167.41</ele>
        <time>2023-10-28T07:37:53Z</time>
      </trkpt>
      <trkpt lat="44.54211" lon="1.07365">
        <ele>167.41</ele>
        <time>2023-10-28T07:37:54Z</time>
      </trkpt>
      <trkpt lat="44.54211" lon="1.07366">
        <ele>207.3</ele>
        <time>2023-10-28T07:37:58Z</time>
      </trkpt>
      <trkpt lat="44.54211" lon="1.07365">
        <ele>206.82</ele>
        <time>2023-10-28T07:37:59Z</time>
      </trkpt>
      <trkpt lat="44.54211" lon="1.07367">
        <ele>207.3</ele>
        <time>2023-10-28T07:38:16Z</time>
      </trkpt>
      <trkpt lat="44.54212" lon="1.07367">
        <ele>205.86</ele>
        <time>2023-10-28T07:38:18Z</time>
      </trkpt>
      <trkpt lat="44.54212" lon="1.07367">
        <ele>207.3</ele>
        <time>2023-10-28T07:38:20Z</time>
      </trkpt>
      <trkpt lat="44.54213" lon="1.07367">
        <ele>205.86</ele>
        <time>2023-10-28T07:38:23Z</time>
      </trkpt>
      <trkpt lat="44.54213" lon="1.07366">
        <ele>207.3</ele>
        <time>2023-10-28T07:38:48Z</time>
      </trkpt>
      <trkpt lat="44.54214" lon="1.07366">
        <ele>207.3</ele>
        <time>2023-10-28T07:39:10Z</time>
      </trkpt>
      <trkpt lat="44.54213" lon="1.07367">
        <ele>207.3</ele>
        <time>2023-10-28T07:39:31Z</time>
      </trkpt>
      <trkpt lat="44.54212" lon="1.07371">
        <ele>205.86</ele>
        <time>2023-10-28T07:39:52Z</time>
      </trkpt>
      <trkpt lat="44.54211" lon="1.07367">
        <ele>205.86</ele>
        <time>2023-10-28T07:40:04Z</time>
      </trkpt>
      <trkpt lat="44.54211" lon="1.07366">
        <ele>205.86</ele>
        <time>2023-10-28T07:40:17Z</time>
      </trkpt>
      <trkpt lat="44.54195" lon="1.0736">
        <ele>205.38</ele>
        <time>2023-10-28T07:40:34Z</time>
      </trkpt>
      <trkpt lat="44.54182" lon="1.07355">
        <ele>205.38</ele>
        <time>2023-10-28T07:40:50Z</time>
      </trkpt>
      <trkpt lat="44.54168" lon="1.07341">
        <ele>203.94</ele>
        <time>2023-10-28T07:41:10Z</time>
      </trkpt>
      <trkpt lat="44.54161" lon="1.07335">
        <ele>202.49</ele>
        <time>2023-10-28T07:41:25Z</time>
      </trkpt>
      <trkpt lat="44.54164" lon="1.07327">
        <ele>202.01</ele>
        <time>2023-10-28T07:41:40Z</time>
      </trkpt>
      <trkpt lat="44.54171" lon="1.07316">
        <ele>201.05</ele>
        <time>2023-10-28T07:41:55Z</time>
      </trkpt>
      <trkpt lat="44.54176" lon="1.07309">
        <ele>200.57</ele>
        <time>2023-10-28T07:42:11Z</time>
      </trkpt>
      <trkpt lat="44.5418" lon="1.07294">
        <ele>198.17</ele>
        <time>2023-10-28T07:42:27Z</time>
      </trkpt>
      <trkpt lat="44.54185" lon="1.07289">
        <ele>197.21</ele>
        <time>2023-10-28T07:42:43Z</time>
      </trkpt>
      <trkpt lat="44.5419" lon="1.07288">
        <ele>196.73</ele>
        <time>2023-10-28T07:42:54Z</time>
      </trkpt>
      <trkpt lat="44.54192" lon="1.07286">
        <ele>196.25</ele>
        <time>2023-10-28T07:43:08Z</time>
      </trkpt>
      <trkpt lat="44.5419" lon="1.07285">
        <ele>195.77</ele>
        <time>2023-10-28T07:43:22Z</time>
      </trkpt>
      <trkpt lat="44.54198" lon="1.07282">
        <ele>194.8</ele>
        <time>2023-10-28T07:43:34Z</time>
      </trkpt>
      <trkpt lat="44.54204" lon="1.07273">
        <ele>193.84</ele>
        <time>2023-10-28T07:43:51Z</time>
      </trkpt>
      <trkpt lat="44.54214" lon="1.07274">
        <ele>193.36</ele>
        <time>2023-10-28T07:44:08Z</time>
      </trkpt>
      <trkpt lat="44.54226" lon="1.07271">
        <ele>191.92</ele>
        <time>2023-10-28T07:44:24Z</time>
      </trkpt>
      <trkpt lat="44.54235" lon="1.0727">
        <ele>190.96</ele>
        <time>2023-10-28T07:44:37Z</time>
      </trkpt>
      <trkpt lat="44.54243" lon="1.07265">
        <ele>189.52</ele>
        <time>2023-10-28T07:44:53Z</time>
      </trkpt>
      <trkpt lat="44.54251" lon="1.07264">
        <ele>188.56</ele>
        <time>2023-10-28T07:45:09Z</time>
      </trkpt>
      <trkpt lat="44.54257" lon="1.07262">
        <ele>187.11</ele>
        <time>2023-10-28T07:45:28Z</time>
      </trkpt>
      <trkpt lat="44.54264" lon="1.07259">
        <ele>185.67</ele>
        <time>2023-10-28T07:45:44Z</time>
      </trkpt>
      <trkpt lat="44.54273" lon="1.07258">
        <ele>185.19</ele>
        <time>2023-10-28T07:46:01Z</time>
      </trkpt>
      <trkpt lat="44.54274" lon="1.07258">
        <ele>183.75</ele>
        <time>2023-10-28T07:46:04Z</time>
      </trkpt>
      <trkpt lat="44.54282" lon="1.07259">
        <ele>182.79</ele>
        <time>2023-10-28T07:46:18Z</time>
      </trkpt>
      <trkpt lat="44.54289" lon="1.07258">
        <ele>181.83</ele>
        <time>2023-10-28T07:46:32Z</time>
      </trkpt>
      <trkpt lat="44.54297" lon="1.07259">
        <ele>180.38</ele>
        <time>2023-10-28T07:46:49Z</time>
      </trkpt>
      <trkpt lat="44.54304" lon="1.07267">
        <ele>179.42</ele>
        <time>2023-10-28T07:47:03Z</time>
      </trkpt>
      <trkpt lat="44.54307" lon="1.07271">
        <ele>180.87</ele>
        <time>2023-10-28T07:47:15Z</time>
      </trkpt>
      <trkpt lat="44.54312" lon="1.07285">
        <ele>182.31</ele>
        <time>2023-10-28T07:47:30Z</time>
      </trkpt>
      <trkpt lat="44.54315" lon="1.07301">
        <ele>184.23</ele>
        <time>2023-10-28T07:47:47Z</time>
      </trkpt>
      <trkpt lat="44.54318" lon="1.07313">
        <ele>185.67</ele>
        <time>2023-10-28T07:48:03Z</time>
      </trkpt>
      <trkpt lat="44.54322" lon="1.07326">
        <ele>187.11</ele>
        <time>2023-10-28T07:48:17Z</time>
      </trkpt>
      <trkpt lat="44.54324" lon="1.07343">
        <ele>187.59</ele>
        <time>2023-10-28T07:48:32Z</time>
      </trkpt>
      <trkpt lat="44.54327" lon="1.07364">
        <ele>188.56</ele>
        <time>2023-10-28T07:48:49Z</time>
      </trkpt>
      <trkpt lat="44.54327" lon="1.07381">
        <ele>190</ele>
        <time>2023-10-28T07:49:07Z</time>
      </trkpt>
      <trkpt lat="44.54328" lon="1.07389">
        <ele>190</ele>
        <time>2023-10-28T07:49:22Z</time>
      </trkpt>
      <trkpt lat="44.54322" lon="1.07398">
        <ele>190</ele>
        <time>2023-10-28T07:49:36Z</time>
      </trkpt>
      <trkpt lat="44.54316" lon="1.07412">
        <ele>190.48</ele>
        <time>2023-10-28T07:49:52Z</time>
      </trkpt>
      <trkpt lat="44.54308" lon="1.07426">
        <ele>190.96</ele>
        <time>2023-10-28T07:50:07Z</time>
      </trkpt>
      <trkpt lat="44.54307" lon="1.0743">
        <ele>190.96</ele>
        <time>2023-10-28T07:50:26Z</time>
      </trkpt>
      <trkpt lat="44.54299" lon="1.07439">
        <ele>190.96</ele>
        <time>2023-10-28T07:50:41Z</time>
      </trkpt>
      <trkpt lat="44.54296" lon="1.07444">
        <ele>191.44</ele>
        <time>2023-10-28T07:50:57Z</time>
      </trkpt>
      <trkpt lat="44.5429" lon="1.07449">
        <ele>191.44</ele>
        <time>2023-10-28T07:51:15Z</time>
      </trkpt>
      <trkpt lat="44.54279" lon="1.07456">
        <ele>190</ele>
        <time>2023-10-28T07:51:30Z</time>
      </trkpt>
      <trkpt lat="44.54271" lon="1.07464">
        <ele>189.52</ele>
        <time>2023-10-28T07:51:41Z</time>
      </trkpt>
      <trkpt lat="44.54259" lon="1.07479">
        <ele>188.56</ele>
        <time>2023-10-28T07:51:57Z</time>
      </trkpt>
      <trkpt lat="44.54258" lon="1.0748">
        <ele>188.56</ele>
        <time>2023-10-28T07:51:59Z</time>
      </trkpt>
      <trkpt lat="44.54251" lon="1.07495">
        <ele>188.08</ele>
        <time>2023-10-28T07:52:13Z</time>
      </trkpt>
      <trkpt lat="44.54247" lon="1.075">
        <ele>187.59</ele>
        <time>2023-10-28T07:52:25Z</time>
      </trkpt>
      <trkpt lat="44.5424" lon="1.07516">
        <ele>187.59</ele>
        <time>2023-10-28T07:52:41Z</time>
      </trkpt>
      <trkpt lat="44.54232" lon="1.07532">
        <ele>187.11</ele>
        <time>2023-10-28T07:52:55Z</time>
      </trkpt>
      <trkpt lat="44.5423" lon="1.07534">
        <ele>187.11</ele>
        <time>2023-10-28T07:52:59Z</time>
      </trkpt>
      <trkpt lat="44.54224" lon="1.07538">
        <ele>188.56</ele>
        <time>2023-10-28T07:53:04Z</time>
      </trkpt>
      <trkpt lat="44.5421" lon="1.07542">
        <ele>190.48</ele>
        <time>2023-10-28T07:53:20Z</time>
      </trkpt>
      <trkpt lat="44.54198" lon="1.07549">
        <ele>191.92</ele>
        <time>2023-10-28T07:53:35Z</time>
      </trkpt>
      <trkpt lat="44.54197" lon="1.07558">
        <ele>192.4</ele>
        <time>2023-10-28T07:53:50Z</time>
      </trkpt>
      <trkpt lat="44.54202" lon="1.07558">
        <ele>192.4</ele>
        <time>2023-10-28T07:54:03Z</time>
      </trkpt>
      <trkpt lat="44.54201" lon="1.07571">
        <ele>193.84</ele>
        <time>2023-10-28T07:54:18Z</time>
      </trkpt>
      <trkpt lat="44.54203" lon="1.07588">
        <ele>195.28</ele>
        <time>2023-10-28T07:54:33Z</time>
      </trkpt>
      <trkpt lat="44.54205" lon="1.07592">
        <ele>196.25</ele>
        <time>2023-10-28T07:54:49Z</time>
      </trkpt>
      <trkpt lat="44.54205" lon="1.07603">
        <ele>196.25</ele>
        <time>2023-10-28T07:55:05Z</time>
      </trkpt>
      <trkpt lat="44.54203" lon="1.07619">
        <ele>198.17</ele>
        <time>2023-10-28T07:55:20Z</time>
      </trkpt>
      <trkpt lat="44.54202" lon="1.07628">
        <ele>199.13</ele>
        <time>2023-10-28T07:55:33Z</time>
      </trkpt>
      <trkpt lat="44.54203" lon="1.0764">
        <ele>201.05</ele>
        <time>2023-10-28T07:55:46Z</time>
      </trkpt>
      <trkpt lat="44.54204" lon="1.07656">
        <ele>202.98</ele>
        <time>2023-10-28T07:56:01Z</time>
      </trkpt>
      <trkpt lat="44.54204" lon="1.07667">
        <ele>203.94</ele>
        <time>2023-10-28T07:56:15Z</time>
      </trkpt>
      <trkpt lat="44.54206" lon="1.07676">
        <ele>205.86</ele>
        <time>2023-10-28T07:56:31Z</time>
      </trkpt>
      <trkpt lat="44.54207" lon="1.07686">
        <ele>207.3</ele>
        <time>2023-10-28T07:56:49Z</time>
      </trkpt>
      <trkpt lat="44.5421" lon="1.0769">
        <ele>207.78</ele>
        <time>2023-10-28T07:57:13Z</time>
      </trkpt>
      <trkpt lat="44.54212" lon="1.07702">
        <ele>209.7</ele>
        <time>2023-10-28T07:57:29Z</time>
      </trkpt>
      <trkpt lat="44.54211" lon="1.07717">
        <ele>211.63</ele>
        <time>2023-10-28T07:57:46Z</time>
      </trkpt>
      <trkpt lat="44.54212" lon="1.07729">
        <ele>212.59</ele>
        <time>2023-10-28T07:58:01Z</time>
      </trkpt>
      <trkpt lat="44.54214" lon="1.0774">
        <ele>214.51</ele>
        <time>2023-10-28T07:58:17Z</time>
      </trkpt>
      <trkpt lat="44.54216" lon="1.07746">
        <ele>215.47</ele>
        <time>2023-10-28T07:58:35Z</time>
      </trkpt>
      <trkpt lat="44.54216" lon="1.07756">
        <ele>216.43</ele>
        <time>2023-10-28T07:58:49Z</time>
      </trkpt>
      <trkpt lat="44.54216" lon="1.07769">
        <ele>217.88</ele>
        <time>2023-10-28T07:59:04Z</time>
      </trkpt>
      <trkpt lat="44.54216" lon="1.07782">
        <ele>218.84</ele>
        <time>2023-10-28T07:59:20Z</time>
      </trkpt>
      <trkpt lat="44.54211" lon="1.07791">
        <ele>219.8</ele>
        <time>2023-10-28T07:59:33Z</time>
      </trkpt>
      <trkpt lat="44.54206" lon="1.07798">
        <ele>221.24</ele>
        <time>2023-10-28T07:59:47Z</time>
      </trkpt>
      <trkpt lat="44.54205" lon="1.07803">
        <ele>221.24</ele>
        <time>2023-10-28T08:00:05Z</time>
      </trkpt>
      <trkpt lat="44.54201" lon="1.07814">
        <ele>222.2</ele>
        <time>2023-10-28T08:00:21Z</time>
      </trkpt>
      <trkpt lat="44.54195" lon="1.07823">
        <ele>222.68</ele>
        <time>2023-10-28T08:00:34Z</time>
      </trkpt>
      <trkpt lat="44.54191" lon="1.07833">
        <ele>223.16</ele>
        <time>2023-10-28T08:00:50Z</time>
      </trkpt>
      <trkpt lat="44.54186" lon="1.07841">
        <ele>223.64</ele>
        <time>2023-10-28T08:01:05Z</time>
      </trkpt>
      <trkpt lat="44.54187" lon="1.07843">
        <ele>223.64</ele>
        <time>2023-10-28T08:01:23Z</time>
      </trkpt>
      <trkpt lat="44.54194" lon="1.07846">
        <ele>223.64</ele>
        <time>2023-10-28T08:01:37Z</time>
      </trkpt>
      <trkpt lat="44.54201" lon="1.07851">
        <ele>224.12</ele>
        <time>2023-10-28T08:01:50Z</time>
      </trkpt>
      <trkpt lat="44.54203" lon="1.07854">
        <ele>224.12</ele>
        <time>2023-10-28T08:02:05Z</time>
      </trkpt>
      <trkpt lat="44.54192" lon="1.07846">
        <ele>224.12</ele>
        <time>2023-10-28T08:02:17Z</time>
      </trkpt>
      <trkpt lat="44.54184" lon="1.07847">
        <ele>224.12</ele>
        <time>2023-10-28T08:02:25Z</time>
      </trkpt>
      <trkpt lat="44.5418" lon="1.07854">
        <ele>224.12</ele>
        <time>2023-10-28T08:02:40Z</time>
      </trkpt>
      <trkpt lat="44.54174" lon="1.07863">
        <ele>223.64</ele>
        <time>2023-10-28T08:02:55Z</time>
      </trkpt>
      <trkpt lat="44.54166" lon="1.07873">
        <ele>223.64</ele>
        <time>2023-10-28T08:03:12Z</time>
      </trkpt>
      <trkpt lat="44.54164" lon="1.07878">
        <ele>223.64</ele>
        <time>2023-10-28T08:03:27Z</time>
      </trkpt>
      <trkpt lat="44.54159" lon="1.07868">
        <ele>221.72</ele>
        <time>2023-10-28T08:03:41Z</time>
      </trkpt>
      <trkpt lat="44.54149" lon="1.07857">
        <ele>221.72</ele>
        <time>2023-10-28T08:03:55Z</time>
      </trkpt>
      <trkpt lat="44.54141" lon="1.07849">
        <ele>220.76</ele>
        <time>2023-10-28T08:04:09Z</time>
      </trkpt>
      <trkpt lat="44.54131" lon="1.07845">
        <ele>219.32</ele>
        <time>2023-10-28T08:04:25Z</time>
      </trkpt>
      <trkpt lat="44.54123" lon="1.07836">
        <ele>217.88</ele>
        <time>2023-10-28T08:04:40Z</time>
      </trkpt>
      <trkpt lat="44.54116" lon="1.07834">
        <ele>215.95</ele>
        <time>2023-10-28T08:04:54Z</time>
      </trkpt>
      <trkpt lat="44.54104" lon="1.07832">
        <ele>214.99</ele>
        <time>2023-10-28T08:05:09Z</time>
      </trkpt>
      <trkpt lat="44.54095" lon="1.07828">
        <ele>213.55</ele>
        <time>2023-10-28T08:05:23Z</time>
      </trkpt>
      <trkpt lat="44.54084" lon="1.07825">
        <ele>212.11</ele>
        <time>2023-10-28T08:05:38Z</time>
      </trkpt>
      <trkpt lat="44.54074" lon="1.0782">
        <ele>210.67</ele>
        <time>2023-10-28T08:05:53Z</time>
      </trkpt>
      <trkpt lat="44.54067" lon="1.07817">
        <ele>209.22</ele>
        <time>2023-10-28T08:06:12Z</time>
      </trkpt>
      <trkpt lat="44.54064" lon="1.07829">
        <ele>208.26</ele>
        <time>2023-10-28T08:06:24Z</time>
      </trkpt>
      <trkpt lat="44.5406" lon="1.07845">
        <ele>207.3</ele>
        <time>2023-10-28T08:06:37Z</time>
      </trkpt>
      <trkpt lat="44.54058" lon="1.07866">
        <ele>206.34</ele>
        <time>2023-10-28T08:06:50Z</time>
      </trkpt>
      <trkpt lat="44.5406" lon="1.07878">
        <ele>206.34</ele>
        <time>2023-10-28T08:07:04Z</time>
      </trkpt>
      <trkpt lat="44.5406" lon="1.07893">
        <ele>205.86</ele>
        <time>2023-10-28T08:07:16Z</time>
      </trkpt>
      <trkpt lat="44.54059" lon="1.0791">
        <ele>205.38</ele>
        <time>2023-10-28T08:07:28Z</time>
      </trkpt>
      <trkpt lat="44.54059" lon="1.0793">
        <ele>203.94</ele>
        <time>2023-10-28T08:07:41Z</time>
      </trkpt>
      <trkpt lat="44.54059" lon="1.07934">
        <ele>203.94</ele>
        <time>2023-10-28T08:07:43Z</time>
      </trkpt>
      <trkpt lat="44.54056" lon="1.07957">
        <ele>202.49</ele>
        <time>2023-10-28T08:07:59Z</time>
      </trkpt>
      <trkpt lat="44.54054" lon="1.07982">
        <ele>201.53</ele>
        <time>2023-10-28T08:08:17Z</time>
      </trkpt>
      <trkpt lat="44.54053" lon="1.07986">
        <ele>201.05</ele>
        <time>2023-10-28T08:08:20Z</time>
      </trkpt>
      <trkpt lat="44.54048" lon="1.08002">
        <ele>200.57</ele>
        <time>2023-10-28T08:08:33Z</time>
      </trkpt>
      <trkpt lat="44.54045" lon="1.0801">
        <ele>200.57</ele>
        <time>2023-10-28T08:08:38Z</time>
      </trkpt>
      <trkpt lat="44.54033" lon="1.08026">
        <ele>200.57</ele>
        <time>2023-10-28T08:08:53Z</time>
      </trkpt>
      <trkpt lat="44.54021" lon="1.08041">
        <ele>200.09</ele>
        <time>2023-10-28T08:09:07Z</time>
      </trkpt>
      <trkpt lat="44.54011" lon="1.08048">
        <ele>199.61</ele>
        <time>2023-10-28T08:09:18Z</time>
      </trkpt>
      <trkpt lat="44.54" lon="1.0805">
        <ele>199.61</ele>
        <time>2023-10-28T08:09:33Z</time>
      </trkpt>
      <trkpt lat="44.53991" lon="1.08052">
        <ele>200.57</ele>
        <time>2023-10-28T08:09:43Z</time>
      </trkpt>
      <trkpt lat="44.53977" lon="1.08055">
        <ele>200.57</ele>
        <time>2023-10-28T08:09:56Z</time>
      </trkpt>
      <trkpt lat="44.53963" lon="1.0806">
        <ele>200.57</ele>
        <time>2023-10-28T08:10:10Z</time>
      </trkpt>
      <trkpt lat="44.53949" lon="1.08067">
        <ele>199.13</ele>
        <time>2023-10-28T08:10:23Z</time>
      </trkpt>
      <trkpt lat="44.53938" lon="1.08082">
        <ele>198.65</ele>
        <time>2023-10-28T08:10:38Z</time>
      </trkpt>
      <trkpt lat="44.53926" lon="1.08096">
        <ele>197.21</ele>
        <time>2023-10-28T08:10:54Z</time>
      </trkpt>
      <trkpt lat="44.53918" lon="1.08107">
        <ele>196.73</ele>
        <time>2023-10-28T08:11:06Z</time>
      </trkpt>
      <trkpt lat="44.53908" lon="1.08116">
        <ele>195.28</ele>
        <time>2023-10-28T08:11:20Z</time>
      </trkpt>
      <trkpt lat="44.53902" lon="1.08126">
        <ele>193.36</ele>
        <time>2023-10-28T08:11:32Z</time>
      </trkpt>
      <trkpt lat="44.53892" lon="1.08138">
        <ele>191.44</ele>
        <time>2023-10-28T08:11:46Z</time>
      </trkpt>
      <trkpt lat="44.5389" lon="1.0814">
        <ele>190.96</ele>
        <time>2023-10-28T08:11:59Z</time>
      </trkpt>
      <trkpt lat="44.53888" lon="1.08133">
        <ele>190.96</ele>
        <time>2023-10-28T08:12:12Z</time>
      </trkpt>
      <trkpt lat="44.53884" lon="1.08142">
        <ele>190.96</ele>
        <time>2023-10-28T08:12:27Z</time>
      </trkpt>
      <trkpt lat="44.53889" lon="1.0814">
        <ele>190.96</ele>
        <time>2023-10-28T08:12:42Z</time>
      </trkpt>
      <trkpt lat="44.53889" lon="1.08145">
        <ele>190.96</ele>
        <time>2023-10-28T08:12:47Z</time>
      </trkpt>
      <trkpt lat="44.53887" lon="1.08156">
        <ele>190.96</ele>
        <time>2023-10-28T08:12:53Z</time>
      </trkpt>
      <trkpt lat="44.53888" lon="1.08176">
        <ele>190.96</ele>
        <time>2023-10-28T08:13:06Z</time>
      </trkpt>
      <trkpt lat="44.53893" lon="1.08195">
        <ele>190.48</ele>
        <time>2023-10-28T08:13:22Z</time>
      </trkpt>
      <trkpt lat="44.539" lon="1.08216">
        <ele>190.48</ele>
        <time>2023-10-28T08:13:38Z</time>
      </trkpt>
      <trkpt lat="44.53916" lon="1.08225">
        <ele>190.48</ele>
        <time>2023-10-28T08:13:54Z</time>
      </trkpt>
      <trkpt lat="44.53927" lon="1.08239">
        <ele>190.48</ele>
        <time>2023-10-28T08:14:08Z</time>
      </trkpt>
      <trkpt lat="44.53933" lon="1.08259">
        <ele>191.44</ele>
        <time>2023-10-28T08:14:23Z</time>
      </trkpt>
      <trkpt lat="44.53936" lon="1.08273">
        <ele>191.92</ele>
        <time>2023-10-28T08:14:34Z</time>
      </trkpt>
      <trkpt lat="44.53938" lon="1.08275">
        <ele>191.92</ele>
        <time>2023-10-28T08:14:36Z</time>
      </trkpt>
      <trkpt lat="44.53938" lon="1.0828">
        <ele>191.92</ele>
        <time>2023-10-28T08:14:39Z</time>
      </trkpt>
      <trkpt lat="44.53942" lon="1.083">
        <ele>192.4</ele>
        <time>2023-10-28T08:14:54Z</time>
      </trkpt>
      <trkpt lat="44.53941" lon="1.08321">
        <ele>192.88</ele>
        <time>2023-10-28T08:15:07Z</time>
      </trkpt>
      <trkpt lat="44.53941" lon="1.08338">
        <ele>192.88</ele>
        <time>2023-10-28T08:15:20Z</time>
      </trkpt>
      <trkpt lat="44.53938" lon="1.08353">
        <ele>192.88</ele>
        <time>2023-10-28T08:15:35Z</time>
      </trkpt>
      <trkpt lat="44.53938" lon="1.08362">
        <ele>192.88</ele>
        <time>2023-10-28T08:15:49Z</time>
      </trkpt>
      <trkpt lat="44.53935" lon="1.08382">
        <ele>193.36</ele>
        <time>2023-10-28T08:16:01Z</time>
      </trkpt>
      <trkpt lat="44.53936" lon="1.08391">
        <ele>193.36</ele>
        <time>2023-10-28T08:16:07Z</time>
      </trkpt>
      <trkpt lat="44.53937" lon="1.08404">
        <ele>193.36</ele>
        <time>2023-10-28T08:16:17Z</time>
      </trkpt>
      <trkpt lat="44.53935" lon="1.08425">
        <ele>194.32</ele>
        <time>2023-10-28T08:16:32Z</time>
      </trkpt>
      <trkpt lat="44.53935" lon="1.08435">
        <ele>193.84</ele>
        <time>2023-10-28T08:16:46Z</time>
      </trkpt>
      <trkpt lat="44.53934" lon="1.0844">
        <ele>193.84</ele>
        <time>2023-10-28T08:17:01Z</time>
      </trkpt>
      <trkpt lat="44.53933" lon="1.08461">
        <ele>194.32</ele>
        <time>2023-10-28T08:17:16Z</time>
      </trkpt>
      <trkpt lat="44.53934" lon="1.08474">
        <ele>194.32</ele>
        <time>2023-10-28T08:17:29Z</time>
      </trkpt>
      <trkpt lat="44.53934" lon="1.08493">
        <ele>194.32</ele>
        <time>2023-10-28T08:17:43Z</time>
      </trkpt>
      <trkpt lat="44.53935" lon="1.08512">
        <ele>194.8</ele>
        <time>2023-10-28T08:17:58Z</time>
      </trkpt>
      <trkpt lat="44.53935" lon="1.08535">
        <ele>194.8</ele>
        <time>2023-10-28T08:18:14Z</time>
      </trkpt>
      <trkpt lat="44.53934" lon="1.08552">
        <ele>195.77</ele>
        <time>2023-10-28T08:18:27Z</time>
      </trkpt>
      <trkpt lat="44.53933" lon="1.08566">
        <ele>195.77</ele>
        <time>2023-10-28T08:18:40Z</time>
      </trkpt>
      <trkpt lat="44.5393" lon="1.08583">
        <ele>195.77</ele>
        <time>2023-10-28T08:18:51Z</time>
      </trkpt>
      <trkpt lat="44.5393" lon="1.08601">
        <ele>196.25</ele>
        <time>2023-10-28T08:19:04Z</time>
      </trkpt>
      <trkpt lat="44.53929" lon="1.08628">
        <ele>196.25</ele>
        <time>2023-10-28T08:19:20Z</time>
      </trkpt>
      <trkpt lat="44.53926" lon="1.08649">
        <ele>196.25</ele>
        <time>2023-10-28T08:19:35Z</time>
      </trkpt>
      <trkpt lat="44.53921" lon="1.0866">
        <ele>196.25</ele>
        <time>2023-10-28T08:19:57Z</time>
      </trkpt>
      <trkpt lat="44.53916" lon="1.0868">
        <ele>196.25</ele>
        <time>2023-10-28T08:20:12Z</time>
      </trkpt>
      <trkpt lat="44.53913" lon="1.08691">
        <ele>196.73</ele>
        <time>2023-10-28T08:20:21Z</time>
      </trkpt>
      <trkpt lat="44.53909" lon="1.08709">
        <ele>197.21</ele>
        <time>2023-10-28T08:20:36Z</time>
      </trkpt>
      <trkpt lat="44.53905" lon="1.08728">
        <ele>197.21</ele>
        <time>2023-10-28T08:20:51Z</time>
      </trkpt>
      <trkpt lat="44.539" lon="1.08749">
        <ele>197.69</ele>
        <time>2023-10-28T08:21:05Z</time>
      </trkpt>
      <trkpt lat="44.53896" lon="1.08765">
        <ele>198.17</ele>
        <time>2023-10-28T08:21:21Z</time>
      </trkpt>
      <trkpt lat="44.53888" lon="1.08784">
        <ele>199.13</ele>
        <time>2023-10-28T08:21:37Z</time>
      </trkpt>
      <trkpt lat="44.53883" lon="1.088">
        <ele>199.13</ele>
        <time>2023-10-28T08:21:53Z</time>
      </trkpt>
      <trkpt lat="44.53878" lon="1.08816">
        <ele>199.13</ele>
        <time>2023-10-28T08:22:11Z</time>
      </trkpt>
      <trkpt lat="44.53878" lon="1.08837">
        <ele>199.61</ele>
        <time>2023-10-28T08:22:27Z</time>
      </trkpt>
      <trkpt lat="44.53877" lon="1.08854">
        <ele>200.09</ele>
        <time>2023-10-28T08:22:41Z</time>
      </trkpt>
      <trkpt lat="44.53871" lon="1.08872">
        <ele>200.57</ele>
        <time>2023-10-28T08:22:56Z</time>
      </trkpt>
      <trkpt lat="44.53864" lon="1.08892">
        <ele>201.53</ele>
        <time>2023-10-28T08:23:12Z</time>
      </trkpt>
      <trkpt lat="44.53861" lon="1.08905">
        <ele>202.01</ele>
        <time>2023-10-28T08:23:25Z</time>
      </trkpt>
      <trkpt lat="44.53858" lon="1.08917">
        <ele>202.01</ele>
        <time>2023-10-28T08:23:38Z</time>
      </trkpt>
      <trkpt lat="44.5385" lon="1.08932">
        <ele>202.49</ele>
        <time>2023-10-28T08:23:52Z</time>
      </trkpt>
      <trkpt lat="44.53845" lon="1.08945">
        <ele>202.49</ele>
        <time>2023-10-28T08:24:09Z</time>
      </trkpt>
      <trkpt lat="44.53839" lon="1.08961">
        <ele>202.49</ele>
        <time>2023-10-28T08:24:22Z</time>
      </trkpt>
      <trkpt lat="44.53835" lon="1.08977">
        <ele>202.98</ele>
        <time>2023-10-28T08:24:35Z</time>
      </trkpt>
      <trkpt lat="44.53835" lon="1.08987">
        <ele>203.46</ele>
        <time>2023-10-28T08:24:47Z</time>
      </trkpt>
      <trkpt lat="44.53836" lon="1.09002">
        <ele>203.94</ele>
        <time>2023-10-28T08:25:00Z</time>
      </trkpt>
      <trkpt lat="44.53835" lon="1.0901">
        <ele>204.9</ele>
        <time>2023-10-28T08:25:13Z</time>
      </trkpt>
      <trkpt lat="44.53841" lon="1.09023">
        <ele>205.38</ele>
        <time>2023-10-28T08:25:28Z</time>
      </trkpt>
      <trkpt lat="44.53848" lon="1.09047">
        <ele>205.86</ele>
        <time>2023-10-28T08:25:44Z</time>
      </trkpt>
      <trkpt lat="44.53852" lon="1.09062">
        <ele>205.86</ele>
        <time>2023-10-28T08:26:00Z</time>
      </trkpt>
      <trkpt lat="44.53857" lon="1.09071">
        <ele>206.34</ele>
        <time>2023-10-28T08:26:15Z</time>
      </trkpt>
      <trkpt lat="44.53857" lon="1.09082">
        <ele>206.34</ele>
        <time>2023-10-28T08:26:31Z</time>
      </trkpt>
      <trkpt lat="44.53863" lon="1.09097">
        <ele>207.3</ele>
        <time>2023-10-28T08:26:46Z</time>
      </trkpt>
      <trkpt lat="44.53866" lon="1.0911">
        <ele>207.3</ele>
        <time>2023-10-28T08:27:02Z</time>
      </trkpt>
      <trkpt lat="44.53875" lon="1.09123">
        <ele>208.26</ele>
        <time>2023-10-28T08:27:18Z</time>
      </trkpt>
      <trkpt lat="44.53881" lon="1.09142">
        <ele>209.7</ele>
        <time>2023-10-28T08:27:36Z</time>
      </trkpt>
      <trkpt lat="44.53881" lon="1.09153">
        <ele>209.7</ele>
        <time>2023-10-28T08:27:56Z</time>
      </trkpt>
      <trkpt lat="44.53889" lon="1.09166">
        <ele>210.19</ele>
        <time>2023-10-28T08:28:15Z</time>
      </trkpt>
      <trkpt lat="44.53893" lon="1.09178">
        <ele>210.67</ele>
        <time>2023-10-28T08:28:28Z</time>
      </trkpt>
      <trkpt lat="44.53894" lon="1.09183">
        <ele>211.15</ele>
        <time>2023-10-28T08:28:32Z</time>
      </trkpt>
      <trkpt lat="44.539" lon="1.09198">
        <ele>211.63</ele>
        <time>2023-10-28T08:28:46Z</time>
      </trkpt>
      <trkpt lat="44.53902" lon="1.09214">
        <ele>212.59</ele>
        <time>2023-10-28T08:29:00Z</time>
      </trkpt>
      <trkpt lat="44.53907" lon="1.09226">
        <ele>213.55</ele>
        <time>2023-10-28T08:29:14Z</time>
      </trkpt>
      <trkpt lat="44.53913" lon="1.09247">
        <ele>214.51</ele>
        <time>2023-10-28T08:29:31Z</time>
      </trkpt>
      <trkpt lat="44.53917" lon="1.09261">
        <ele>214.99</ele>
        <time>2023-10-28T08:29:44Z</time>
      </trkpt>
      <trkpt lat="44.53922" lon="1.09271">
        <ele>215.95</ele>
        <time>2023-10-28T08:29:56Z</time>
      </trkpt>
      <trkpt lat="44.53925" lon="1.09285">
        <ele>216.91</ele>
        <time>2023-10-28T08:30:08Z</time>
      </trkpt>
      <trkpt lat="44.53928" lon="1.09304">
        <ele>217.88</ele>
        <time>2023-10-28T08:30:24Z</time>
      </trkpt>
      <trkpt lat="44.53934" lon="1.09318">
        <ele>217.88</ele>
        <time>2023-10-28T08:30:37Z</time>
      </trkpt>
      <trkpt lat="44.53941" lon="1.09335">
        <ele>219.32</ele>
        <time>2023-10-28T08:30:53Z</time>
      </trkpt>
      <trkpt lat="44.53949" lon="1.09347">
        <ele>219.32</ele>
        <time>2023-10-28T08:31:07Z</time>
      </trkpt>
      <trkpt lat="44.53954" lon="1.09364">
        <ele>220.28</ele>
        <time>2023-10-28T08:31:21Z</time>
      </trkpt>
      <trkpt lat="44.53956" lon="1.0937">
        <ele>220.76</ele>
        <time>2023-10-28T08:31:31Z</time>
      </trkpt>
      <trkpt lat="44.53962" lon="1.09387">
        <ele>221.24</ele>
        <time>2023-10-28T08:31:46Z</time>
      </trkpt>
      <trkpt lat="44.53962" lon="1.094">
        <ele>221.72</ele>
        <time>2023-10-28T08:32:00Z</time>
      </trkpt>
      <trkpt lat="44.53966" lon="1.09413">
        <ele>222.2</ele>
        <time>2023-10-28T08:32:13Z</time>
      </trkpt>
      <trkpt lat="44.53964" lon="1.09415">
        <ele>222.2</ele>
        <time>2023-10-28T08:32:29Z</time>
      </trkpt>
      <trkpt lat="44.53967" lon="1.09423">
        <ele>222.2</ele>
        <time>2023-10-28T08:32:45Z</time>
      </trkpt>
      <trkpt lat="44.53968" lon="1.09437">
        <ele>223.16</ele>
        <time>2023-10-28T08:32:58Z</time>
      </trkpt>
      <trkpt lat="44.53972" lon="1.0945">
        <ele>223.64</ele>
        <time>2023-10-28T08:33:11Z</time>
      </trkpt>
      <trkpt lat="44.53977" lon="1.09462">
        <ele>225.09</ele>
        <time>2023-10-28T08:33:23Z</time>
      </trkpt>
      <trkpt lat="44.53981" lon="1.09471">
        <ele>225.57</ele>
        <time>2023-10-28T08:33:33Z</time>
      </trkpt>
      <trkpt lat="44.53985" lon="1.09482">
        <ele>227.49</ele>
        <time>2023-10-28T08:33:49Z</time>
      </trkpt>
      <trkpt lat="44.53982" lon="1.09497">
        <ele>227.97</ele>
        <time>2023-10-28T08:34:02Z</time>
      </trkpt>
      <trkpt lat="44.53981" lon="1.09508">
        <ele>227.97</ele>
        <time>2023-10-28T08:34:15Z</time>
      </trkpt>
      <trkpt lat="44.53977" lon="1.09522">
        <ele>228.45</ele>
        <time>2023-10-28T08:34:31Z</time>
      </trkpt>
      <trkpt lat="44.53973" lon="1.09538">
        <ele>229.41</ele>
        <time>2023-10-28T08:34:47Z</time>
      </trkpt>
      <trkpt lat="44.53973" lon="1.0955">
        <ele>231.33</ele>
        <time>2023-10-28T08:35:00Z</time>
      </trkpt>
      <trkpt lat="44.53968" lon="1.09562">
        <ele>231.81</ele>
        <time>2023-10-28T08:35:13Z</time>
      </trkpt>
      <trkpt lat="44.53962" lon="1.09573">
        <ele>232.78</ele>
        <time>2023-10-28T08:35:28Z</time>
      </trkpt>
      <trkpt lat="44.53959" lon="1.09581">
        <ele>234.22</ele>
        <time>2023-10-28T08:35:40Z</time>
      </trkpt>
      <trkpt lat="44.53953" lon="1.09591">
        <ele>235.18</ele>
        <time>2023-10-28T08:35:54Z</time>
      </trkpt>
      <trkpt lat="44.53948" lon="1.09602">
        <ele>236.14</ele>
        <time>2023-10-28T08:36:10Z</time>
      </trkpt>
      <trkpt lat="44.53942" lon="1.09612">
        <ele>237.58</ele>
        <time>2023-10-28T08:36:25Z</time>
      </trkpt>
      <trkpt lat="44.53941" lon="1.09614">
        <ele>238.54</ele>
        <time>2023-10-28T08:36:40Z</time>
      </trkpt>
      <trkpt lat="44.53944" lon="1.09615">
        <ele>239.02</ele>
        <time>2023-10-28T08:36:58Z</time>
      </trkpt>
      <trkpt lat="44.53932" lon="1.09627">
        <ele>239.99</ele>
        <time>2023-10-28T08:37:14Z</time>
      </trkpt>
      <trkpt lat="44.53925" lon="1.09634">
        <ele>240.95</ele>
        <time>2023-10-28T08:37:28Z</time>
      </trkpt>
      <trkpt lat="44.53918" lon="1.09643">
        <ele>241.43</ele>
        <time>2023-10-28T08:37:45Z</time>
      </trkpt>
      <trkpt lat="44.53911" lon="1.09651">
        <ele>242.87</ele>
        <time>2023-10-28T08:37:58Z</time>
      </trkpt>
      <trkpt lat="44.53903" lon="1.09664">
        <ele>244.31</ele>
        <time>2023-10-28T08:38:16Z</time>
      </trkpt>
      <trkpt lat="44.53896" lon="1.09673">
        <ele>245.27</ele>
        <time>2023-10-28T08:38:30Z</time>
      </trkpt>
      <trkpt lat="44.53892" lon="1.09683">
        <ele>246.23</ele>
        <time>2023-10-28T08:38:44Z</time>
      </trkpt>
      <trkpt lat="44.53885" lon="1.09693">
        <ele>246.72</ele>
        <time>2023-10-28T08:38:59Z</time>
      </trkpt>
      <trkpt lat="44.53881" lon="1.09701">
        <ele>247.2</ele>
        <time>2023-10-28T08:39:13Z</time>
      </trkpt>
      <trkpt lat="44.53876" lon="1.09709">
        <ele>247.68</ele>
        <time>2023-10-28T08:39:27Z</time>
      </trkpt>
      <trkpt lat="44.5387" lon="1.09719">
        <ele>248.16</ele>
        <time>2023-10-28T08:39:40Z</time>
      </trkpt>
      <trkpt lat="44.53863" lon="1.09731">
        <ele>248.64</ele>
        <time>2023-10-28T08:39:56Z</time>
      </trkpt>
      <trkpt lat="44.53862" lon="1.09732">
        <ele>248.64</ele>
        <time>2023-10-28T08:39:57Z</time>
      </trkpt>
      <trkpt lat="44.53854" lon="1.09744">
        <ele>249.12</ele>
        <time>2023-10-28T08:40:11Z</time>
      </trkpt>
      <trkpt lat="44.53849" lon="1.09755">
        <ele>250.08</ele>
        <time>2023-10-28T08:40:23Z</time>
      </trkpt>
      <trkpt lat="44.53841" lon="1.0977">
        <ele>250.08</ele>
        <time>2023-10-28T08:40:38Z</time>
      </trkpt>
      <trkpt lat="44.53834" lon="1.09784">
        <ele>250.56</ele>
        <time>2023-10-28T08:40:55Z</time>
      </trkpt>
      <trkpt lat="44.53829" lon="1.09792">
        <ele>251.52</ele>
        <time>2023-10-28T08:41:08Z</time>
      </trkpt>
      <trkpt lat="44.53825" lon="1.09801">
        <ele>251.52</ele>
        <time>2023-10-28T08:41:21Z</time>
      </trkpt>
      <trkpt lat="44.53817" lon="1.09812">
        <ele>252.48</ele>
        <time>2023-10-28T08:41:35Z</time>
      </trkpt>
      <trkpt lat="44.53808" lon="1.09824">
        <ele>252.48</ele>
        <time>2023-10-28T08:41:51Z</time>
      </trkpt>
      <trkpt lat="44.53798" lon="1.09838">
        <ele>252.48</ele>
        <time>2023-10-28T08:42:05Z</time>
      </trkpt>
      <trkpt lat="44.53792" lon="1.09849">
        <ele>253.44</ele>
        <time>2023-10-28T08:42:19Z</time>
      </trkpt>
      <trkpt lat="44.53786" lon="1.09858">
        <ele>253.44</ele>
        <time>2023-10-28T08:42:29Z</time>
      </trkpt>
      <trkpt lat="44.53777" lon="1.09877">
        <ele>254.41</ele>
        <time>2023-10-28T08:42:46Z</time>
      </trkpt>
      <trkpt lat="44.53775" lon="1.09885">
        <ele>256.33</ele>
        <time>2023-10-28T08:43:01Z</time>
      </trkpt>
      <trkpt lat="44.53778" lon="1.09893">
        <ele>256.81</ele>
        <time>2023-10-28T08:43:15Z</time>
      </trkpt>
      <trkpt lat="44.53775" lon="1.09903">
        <ele>256.81</ele>
        <time>2023-10-28T08:43:28Z</time>
      </trkpt>
      <trkpt lat="44.53771" lon="1.09921">
        <ele>255.37</ele>
        <time>2023-10-28T08:43:44Z</time>
      </trkpt>
      <trkpt lat="44.5377" lon="1.09936">
        <ele>254.41</ele>
        <time>2023-10-28T08:44:00Z</time>
      </trkpt>
      <trkpt lat="44.53771" lon="1.0995">
        <ele>253.44</ele>
        <time>2023-10-28T08:44:16Z</time>
      </trkpt>
      <trkpt lat="44.53774" lon="1.09963">
        <ele>252.48</ele>
        <time>2023-10-28T08:44:30Z</time>
      </trkpt>
      <trkpt lat="44.53774" lon="1.09973">
        <ele>250.56</ele>
        <time>2023-10-28T08:44:46Z</time>
      </trkpt>
      <trkpt lat="44.53774" lon="1.09985">
        <ele>249.6</ele>
        <time>2023-10-28T08:45:00Z</time>
      </trkpt>
      <trkpt lat="44.53772" lon="1.10002">
        <ele>248.64</ele>
        <time>2023-10-28T08:45:16Z</time>
      </trkpt>
      <trkpt lat="44.5377" lon="1.10018">
        <ele>247.2</ele>
        <time>2023-10-28T08:45:32Z</time>
      </trkpt>
      <trkpt lat="44.53769" lon="1.10036">
        <ele>246.72</ele>
        <time>2023-10-28T08:45:48Z</time>
      </trkpt>
      <trkpt lat="44.53768" lon="1.10052">
        <ele>246.23</ele>
        <time>2023-10-28T08:46:00Z</time>
      </trkpt>
      <trkpt lat="44.53767" lon="1.10077">
        <ele>245.75</ele>
        <time>2023-10-28T08:46:17Z</time>
      </trkpt>
      <trkpt lat="44.53771" lon="1.10093">
        <ele>245.75</ele>
        <time>2023-10-28T08:46:31Z</time>
      </trkpt>
      <trkpt lat="44.53774" lon="1.10108">
        <ele>245.27</ele>
        <time>2023-10-28T08:46:44Z</time>
      </trkpt>
      <trkpt lat="44.53774" lon="1.10127">
        <ele>245.27</ele>
        <time>2023-10-28T08:47:00Z</time>
      </trkpt>
      <trkpt lat="44.53774" lon="1.10144">
        <ele>244.79</ele>
        <time>2023-10-28T08:47:15Z</time>
      </trkpt>
      <trkpt lat="44.53773" lon="1.10162">
        <ele>244.31</ele>
        <time>2023-10-28T08:47:30Z</time>
      </trkpt>
      <trkpt lat="44.5377" lon="1.10185">
        <ele>244.31</ele>
        <time>2023-10-28T08:47:45Z</time>
      </trkpt>
      <trkpt lat="44.5377" lon="1.10204">
        <ele>243.83</ele>
        <time>2023-10-28T08:48:00Z</time>
      </trkpt>
      <trkpt lat="44.5377" lon="1.10226">
        <ele>243.83</ele>
        <time>2023-10-28T08:48:14Z</time>
      </trkpt>
      <trkpt lat="44.5377" lon="1.10246">
        <ele>243.35</ele>
        <time>2023-10-28T08:48:32Z</time>
      </trkpt>
      <trkpt lat="44.53771" lon="1.10261">
        <ele>243.35</ele>
        <time>2023-10-28T08:48:45Z</time>
      </trkpt>
      <trkpt lat="44.53775" lon="1.1028">
        <ele>242.87</ele>
        <time>2023-10-28T08:48:59Z</time>
      </trkpt>
      <trkpt lat="44.53779" lon="1.10303">
        <ele>242.87</ele>
        <time>2023-10-28T08:49:14Z</time>
      </trkpt>
      <trkpt lat="44.53782" lon="1.10313">
        <ele>242.87</ele>
        <time>2023-10-28T08:49:28Z</time>
      </trkpt>
      <trkpt lat="44.53783" lon="1.10327">
        <ele>242.87</ele>
        <time>2023-10-28T08:49:41Z</time>
      </trkpt>
      <trkpt lat="44.53787" lon="1.10338">
        <ele>242.87</ele>
        <time>2023-10-28T08:49:58Z</time>
      </trkpt>
      <trkpt lat="44.53792" lon="1.10351">
        <ele>242.87</ele>
        <time>2023-10-28T08:50:14Z</time>
      </trkpt>
      <trkpt lat="44.53793" lon="1.10371">
        <ele>242.87</ele>
        <time>2023-10-28T08:50:28Z</time>
      </trkpt>
      <trkpt lat="44.53796" lon="1.10387">
        <ele>242.87</ele>
        <time>2023-10-28T08:50:39Z</time>
      </trkpt>
      <trkpt lat="44.53799" lon="1.10399">
        <ele>242.39</ele>
        <time>2023-10-28T08:50:51Z</time>
      </trkpt>
      <trkpt lat="44.53804" lon="1.10416">
        <ele>241.91</ele>
        <time>2023-10-28T08:51:07Z</time>
      </trkpt>
      <trkpt lat="44.53807" lon="1.10439">
        <ele>241.91</ele>
        <time>2023-10-28T08:51:22Z</time>
      </trkpt>
      <trkpt lat="44.53805" lon="1.10441">
        <ele>241.91</ele>
        <time>2023-10-28T08:51:38Z</time>
      </trkpt>
      <trkpt lat="44.53805" lon="1.10446">
        <ele>241.43</ele>
        <time>2023-10-28T08:52:02Z</time>
      </trkpt>
      <trkpt lat="44.53808" lon="1.10448">
        <ele>241.43</ele>
        <time>2023-10-28T08:52:18Z</time>
      </trkpt>
      <trkpt lat="44.5381" lon="1.10454">
        <ele>241.43</ele>
        <time>2023-10-28T08:52:31Z</time>
      </trkpt>
      <trkpt lat="44.5381" lon="1.10458">
        <ele>241.43</ele>
        <time>2023-10-28T08:52:55Z</time>
      </trkpt>
      <trkpt lat="44.53819" lon="1.1047">
        <ele>240.47</ele>
        <time>2023-10-28T08:53:10Z</time>
      </trkpt>
      <trkpt lat="44.53825" lon="1.10486">
        <ele>239.51</ele>
        <time>2023-10-28T08:53:26Z</time>
      </trkpt>
      <trkpt lat="44.53828" lon="1.10498">
        <ele>239.51</ele>
        <time>2023-10-28T08:53:42Z</time>
      </trkpt>
      <trkpt lat="44.53831" lon="1.10511">
        <ele>238.54</ele>
        <time>2023-10-28T08:53:58Z</time>
      </trkpt>
      <trkpt lat="44.53834" lon="1.10528">
        <ele>237.58</ele>
        <time>2023-10-28T08:54:14Z</time>
      </trkpt>
      <trkpt lat="44.53833" lon="1.10543">
        <ele>236.14</ele>
        <time>2023-10-28T08:54:27Z</time>
      </trkpt>
      <trkpt lat="44.53832" lon="1.10553">
        <ele>235.66</ele>
        <time>2023-10-28T08:54:40Z</time>
      </trkpt>
      <trkpt lat="44.53825" lon="1.10565">
        <ele>233.74</ele>
        <time>2023-10-28T08:54:55Z</time>
      </trkpt>
      <trkpt lat="44.53822" lon="1.10578">
        <ele>232.78</ele>
        <time>2023-10-28T08:55:10Z</time>
      </trkpt>
      <trkpt lat="44.5382" lon="1.10594">
        <ele>232.78</ele>
        <time>2023-10-28T08:55:23Z</time>
      </trkpt>
      <trkpt lat="44.53813" lon="1.10607">
        <ele>232.3</ele>
        <time>2023-10-28T08:55:38Z</time>
      </trkpt>
      <trkpt lat="44.53817" lon="1.10624">
        <ele>232.3</ele>
        <time>2023-10-28T08:55:51Z</time>
      </trkpt>
      <trkpt lat="44.5382" lon="1.10636">
        <ele>232.3</ele>
        <time>2023-10-28T08:56:06Z</time>
      </trkpt>
      <trkpt lat="44.53823" lon="1.10648">
        <ele>232.3</ele>
        <time>2023-10-28T08:56:18Z</time>
      </trkpt>
      <trkpt lat="44.53828" lon="1.10668">
        <ele>232.3</ele>
        <time>2023-10-28T08:56:31Z</time>
      </trkpt>
      <trkpt lat="44.53831" lon="1.10689">
        <ele>232.3</ele>
        <time>2023-10-28T08:56:47Z</time>
      </trkpt>
      <trkpt lat="44.53835" lon="1.10713">
        <ele>233.26</ele>
        <time>2023-10-28T08:57:04Z</time>
      </trkpt>
      <trkpt lat="44.5384" lon="1.10724">
        <ele>234.7</ele>
        <time>2023-10-28T08:57:18Z</time>
      </trkpt>
      <trkpt lat="44.53848" lon="1.1073">
        <ele>235.18</ele>
        <time>2023-10-28T08:57:32Z</time>
      </trkpt>
      <trkpt lat="44.53852" lon="1.10731">
        <ele>235.18</ele>
        <time>2023-10-28T08:57:46Z</time>
      </trkpt>
      <trkpt lat="44.53859" lon="1.10733">
        <ele>236.62</ele>
        <time>2023-10-28T08:57:58Z</time>
      </trkpt>
      <trkpt lat="44.53873" lon="1.10737">
        <ele>237.58</ele>
        <time>2023-10-28T08:58:14Z</time>
      </trkpt>
      <trkpt lat="44.53885" lon="1.10739">
        <ele>238.54</ele>
        <time>2023-10-28T08:58:28Z</time>
      </trkpt>
      <trkpt lat="44.53894" lon="1.10741">
        <ele>239.51</ele>
        <time>2023-10-28T08:58:41Z</time>
      </trkpt>
      <trkpt lat="44.53906" lon="1.10746">
        <ele>239.99</ele>
        <time>2023-10-28T08:58:57Z</time>
      </trkpt>
      <trkpt lat="44.53918" lon="1.10758">
        <ele>240.95</ele>
        <time>2023-10-28T08:59:11Z</time>
      </trkpt>
      <trkpt lat="44.5392" lon="1.1076">
        <ele>241.43</ele>
        <time>2023-10-28T08:59:14Z</time>
      </trkpt>
      <trkpt lat="44.53931" lon="1.10773">
        <ele>241.43</ele>
        <time>2023-10-28T08:59:29Z</time>
      </trkpt>
      <trkpt lat="44.53943" lon="1.10782">
        <ele>242.39</ele>
        <time>2023-10-28T08:59:45Z</time>
      </trkpt>
      <trkpt lat="44.53957" lon="1.10792">
        <ele>242.87</ele>
        <time>2023-10-28T09:00:02Z</time>
      </trkpt>
      <trkpt lat="44.53965" lon="1.10799">
        <ele>244.31</ele>
        <time>2023-10-28T09:00:13Z</time>
      </trkpt>
      <trkpt lat="44.53974" lon="1.10812">
        <ele>245.27</ele>
        <time>2023-10-28T09:00:28Z</time>
      </trkpt>
      <trkpt lat="44.53979" lon="1.10824">
        <ele>245.75</ele>
        <time>2023-10-28T09:00:42Z</time>
      </trkpt>
      <trkpt lat="44.53987" lon="1.10837">
        <ele>246.23</ele>
        <time>2023-10-28T09:00:57Z</time>
      </trkpt>
      <trkpt lat="44.53995" lon="1.10849">
        <ele>247.2</ele>
        <time>2023-10-28T09:01:14Z</time>
      </trkpt>
      <trkpt lat="44.54" lon="1.1086">
        <ele>247.68</ele>
        <time>2023-10-28T09:01:30Z</time>
      </trkpt>
      <trkpt lat="44.54001" lon="1.10865">
        <ele>247.68</ele>
        <time>2023-10-28T09:01:44Z</time>
      </trkpt>
      <trkpt lat="44.54007" lon="1.1088">
        <ele>247.68</ele>
        <time>2023-10-28T09:02:03Z</time>
      </trkpt>
      <trkpt lat="44.54012" lon="1.10886">
        <ele>247.68</ele>
        <time>2023-10-28T09:02:18Z</time>
      </trkpt>
      <trkpt lat="44.54015" lon="1.10902">
        <ele>245.75</ele>
        <time>2023-10-28T09:02:34Z</time>
      </trkpt>
      <trkpt lat="44.5402" lon="1.10917">
        <ele>244.31</ele>
        <time>2023-10-28T09:02:49Z</time>
      </trkpt>
      <trkpt lat="44.54026" lon="1.10932">
        <ele>242.87</ele>
        <time>2023-10-28T09:03:06Z</time>
      </trkpt>
      <trkpt lat="44.54031" lon="1.10946">
        <ele>241.91</ele>
        <time>2023-10-28T09:03:21Z</time>
      </trkpt>
      <trkpt lat="44.54033" lon="1.10958">
        <ele>241.91</ele>
        <time>2023-10-28T09:03:36Z</time>
      </trkpt>
      <trkpt lat="44.54039" lon="1.10974">
        <ele>241.43</ele>
        <time>2023-10-28T09:03:52Z</time>
      </trkpt>
      <trkpt lat="44.54043" lon="1.10992">
        <ele>240.47</ele>
        <time>2023-10-28T09:04:08Z</time>
      </trkpt>
      <trkpt lat="44.54048" lon="1.11007">
        <ele>239.51</ele>
        <time>2023-10-28T09:04:23Z</time>
      </trkpt>
      <trkpt lat="44.54045" lon="1.11021">
        <ele>238.54</ele>
        <time>2023-10-28T09:04:33Z</time>
      </trkpt>
      <trkpt lat="44.54037" lon="1.11046">
        <ele>238.06</ele>
        <time>2023-10-28T09:04:51Z</time>
      </trkpt>
      <trkpt lat="44.54035" lon="1.11057">
        <ele>237.1</ele>
        <time>2023-10-28T09:05:06Z</time>
      </trkpt>
      <trkpt lat="44.54028" lon="1.11072">
        <ele>236.14</ele>
        <time>2023-10-28T09:05:21Z</time>
      </trkpt>
      <trkpt lat="44.54025" lon="1.11086">
        <ele>235.66</ele>
        <time>2023-10-28T09:05:34Z</time>
      </trkpt>
      <trkpt lat="44.5402" lon="1.11101">
        <ele>235.18</ele>
        <time>2023-10-28T09:05:47Z</time>
      </trkpt>
      <trkpt lat="44.54016" lon="1.11117">
        <ele>235.18</ele>
        <time>2023-10-28T09:06:02Z</time>
      </trkpt>
      <trkpt lat="44.54011" lon="1.11134">
        <ele>235.18</ele>
        <time>2023-10-28T09:06:19Z</time>
      </trkpt>
      <trkpt lat="44.5401" lon="1.11148">
        <ele>234.7</ele>
        <time>2023-10-28T09:06:34Z</time>
      </trkpt>
      <trkpt lat="44.54007" lon="1.11163">
        <ele>234.7</ele>
        <time>2023-10-28T09:06:47Z</time>
      </trkpt>
      <trkpt lat="44.54004" lon="1.11182">
        <ele>234.7</ele>
        <time>2023-10-28T09:07:01Z</time>
      </trkpt>
      <trkpt lat="44.54002" lon="1.11207">
        <ele>234.7</ele>
        <time>2023-10-28T09:07:16Z</time>
      </trkpt>
      <trkpt lat="44.54001" lon="1.11228">
        <ele>234.7</ele>
        <time>2023-10-28T09:07:30Z</time>
      </trkpt>
      <trkpt lat="44.54005" lon="1.11248">
        <ele>235.66</ele>
        <time>2023-10-28T09:07:45Z</time>
      </trkpt>
      <trkpt lat="44.54007" lon="1.11261">
        <ele>237.1</ele>
        <time>2023-10-28T09:08:00Z</time>
      </trkpt>
      <trkpt lat="44.54007" lon="1.11283">
        <ele>238.06</ele>
        <time>2023-10-28T09:08:16Z</time>
      </trkpt>
      <trkpt lat="44.54009" lon="1.11297">
        <ele>239.99</ele>
        <time>2023-10-28T09:08:32Z</time>
      </trkpt>
      <trkpt lat="44.5401" lon="1.11313">
        <ele>240.95</ele>
        <time>2023-10-28T09:08:47Z</time>
      </trkpt>
      <trkpt lat="44.54011" lon="1.11332">
        <ele>241.43</ele>
        <time>2023-10-28T09:09:02Z</time>
      </trkpt>
      <trkpt lat="44.5401" lon="1.11351">
        <ele>242.87</ele>
        <time>2023-10-28T09:09:19Z</time>
      </trkpt>
      <trkpt lat="44.54008" lon="1.11368">
        <ele>240.95</ele>
        <time>2023-10-28T09:09:34Z</time>
      </trkpt>
      <trkpt lat="44.54005" lon="1.11387">
        <ele>239.02</ele>
        <time>2023-10-28T09:09:50Z</time>
      </trkpt>
      <trkpt lat="44.54005" lon="1.11406">
        <ele>237.58</ele>
        <time>2023-10-28T09:10:05Z</time>
      </trkpt>
      <trkpt lat="44.54002" lon="1.11424">
        <ele>236.62</ele>
        <time>2023-10-28T09:10:20Z</time>
      </trkpt>
      <trkpt lat="44.54" lon="1.11437">
        <ele>235.66</ele>
        <time>2023-10-28T09:10:32Z</time>
      </trkpt>
      <trkpt lat="44.53999" lon="1.11459">
        <ele>234.22</ele>
        <time>2023-10-28T09:10:47Z</time>
      </trkpt>
      <trkpt lat="44.53999" lon="1.11478">
        <ele>232.3</ele>
        <time>2023-10-28T09:11:03Z</time>
      </trkpt>
      <trkpt lat="44.54" lon="1.11492">
        <ele>231.81</ele>
        <time>2023-10-28T09:11:17Z</time>
      </trkpt>
      <trkpt lat="44.53998" lon="1.11508">
        <ele>230.85</ele>
        <time>2023-10-28T09:11:34Z</time>
      </trkpt>
      <trkpt lat="44.53996" lon="1.11515">
        <ele>230.85</ele>
        <time>2023-10-28T09:11:44Z</time>
      </trkpt>
      <trkpt lat="44.53991" lon="1.11532">
        <ele>228.93</ele>
        <time>2023-10-28T09:11:58Z</time>
      </trkpt>
      <trkpt lat="44.53987" lon="1.11546">
        <ele>227.49</ele>
        <time>2023-10-28T09:12:13Z</time>
      </trkpt>
      <trkpt lat="44.53986" lon="1.11561">
        <ele>226.05</ele>
        <time>2023-10-28T09:12:29Z</time>
      </trkpt>
      <trkpt lat="44.53984" lon="1.11576">
        <ele>224.61</ele>
        <time>2023-10-28T09:12:47Z</time>
      </trkpt>
      <trkpt lat="44.53981" lon="1.11599">
        <ele>223.16</ele>
        <time>2023-10-28T09:13:09Z</time>
      </trkpt>
      <trkpt lat="44.5398" lon="1.11615">
        <ele>222.68</ele>
        <time>2023-10-28T09:13:22Z</time>
      </trkpt>
      <trkpt lat="44.5398" lon="1.11622">
        <ele>222.68</ele>
        <time>2023-10-28T09:13:26Z</time>
      </trkpt>
      <trkpt lat="44.53987" lon="1.11646">
        <ele>221.72</ele>
        <time>2023-10-28T09:13:41Z</time>
      </trkpt>
      <trkpt lat="44.5399" lon="1.1166">
        <ele>219.8</ele>
        <time>2023-10-28T09:13:57Z</time>
      </trkpt>
      <trkpt lat="44.53993" lon="1.11662">
        <ele>219.32</ele>
        <time>2023-10-28T09:14:21Z</time>
      </trkpt>
      <trkpt lat="44.53995" lon="1.1167">
        <ele>218.84</ele>
        <time>2023-10-28T09:14:41Z</time>
      </trkpt>
      <trkpt lat="44.53998" lon="1.11684">
        <ele>217.4</ele>
        <time>2023-10-28T09:14:56Z</time>
      </trkpt>
      <trkpt lat="44.53999" lon="1.11691">
        <ele>216.91</ele>
        <time>2023-10-28T09:15:10Z</time>
      </trkpt>
      <trkpt lat="44.54" lon="1.117">
        <ele>216.91</ele>
        <time>2023-10-28T09:15:40Z</time>
      </trkpt>
      <trkpt lat="44.54" lon="1.11702">
        <ele>215.47</ele>
        <time>2023-10-28T09:15:54Z</time>
      </trkpt>
      <trkpt lat="44.54" lon="1.11702">
        <ele>217.88</ele>
        <time>2023-10-28T09:15:56Z</time>
      </trkpt>
      <trkpt lat="44.5401" lon="1.11696">
        <ele>216.91</ele>
        <time>2023-10-28T09:16:26Z</time>
      </trkpt>
      <trkpt lat="44.54006" lon="1.11695">
        <ele>217.88</ele>
        <time>2023-10-28T09:16:53Z</time>
      </trkpt>
      <trkpt lat="44.54006" lon="1.11699">
        <ele>217.88</ele>
        <time>2023-10-28T09:17:15Z</time>
      </trkpt>
      <trkpt lat="44.54002" lon="1.117">
        <ele>217.88</ele>
        <time>2023-10-28T09:17:33Z</time>
      </trkpt>
      <trkpt lat="44.53999" lon="1.11699">
        <ele>217.88</ele>
        <time>2023-10-28T09:17:57Z</time>
      </trkpt>
      <trkpt lat="44.54001" lon="1.11699">
        <ele>217.88</ele>
        <time>2023-10-28T09:18:27Z</time>
      </trkpt>
      <trkpt lat="44.54" lon="1.11694">
        <ele>217.88</ele>
        <time>2023-10-28T09:18:55Z</time>
      </trkpt>
      <trkpt lat="44.54" lon="1.11713">
        <ele>217.88</ele>
        <time>2023-10-28T09:19:11Z</time>
      </trkpt>
      <trkpt lat="44.54" lon="1.11727">
        <ele>217.88</ele>
        <time>2023-10-28T09:19:23Z</time>
      </trkpt>
      <trkpt lat="44.54002" lon="1.11743">
        <ele>217.88</ele>
        <time>2023-10-28T09:19:35Z</time>
      </trkpt>
      <trkpt lat="44.54009" lon="1.11767">
        <ele>218.36</ele>
        <time>2023-10-28T09:19:51Z</time>
      </trkpt>
      <trkpt lat="44.54018" lon="1.11784">
        <ele>220.76</ele>
        <time>2023-10-28T09:20:07Z</time>
      </trkpt>
      <trkpt lat="44.54019" lon="1.11798">
        <ele>221.72</ele>
        <time>2023-10-28T09:20:25Z</time>
      </trkpt>
      <trkpt lat="44.54021" lon="1.11806">
        <ele>222.2</ele>
        <time>2023-10-28T09:20:42Z</time>
      </trkpt>
      <trkpt lat="44.54018" lon="1.11821">
        <ele>221.72</ele>
        <time>2023-10-28T09:20:55Z</time>
      </trkpt>
      <trkpt lat="44.54018" lon="1.11839">
        <ele>220.76</ele>
        <time>2023-10-28T09:21:10Z</time>
      </trkpt>
      <trkpt lat="44.54018" lon="1.11858">
        <ele>220.28</ele>
        <time>2023-10-28T09:21:23Z</time>
      </trkpt>
      <trkpt lat="44.5402" lon="1.11879">
        <ele>220.28</ele>
        <time>2023-10-28T09:21:38Z</time>
      </trkpt>
      <trkpt lat="44.54028" lon="1.11898">
        <ele>220.28</ele>
        <time>2023-10-28T09:21:54Z</time>
      </trkpt>
      <trkpt lat="44.54029" lon="1.119">
        <ele>221.72</ele>
        <time>2023-10-28T09:21:56Z</time>
      </trkpt>
      <trkpt lat="44.54036" lon="1.11906">
        <ele>222.2</ele>
        <time>2023-10-28T09:22:07Z</time>
      </trkpt>
      <trkpt lat="44.54048" lon="1.11907">
        <ele>223.16</ele>
        <time>2023-10-28T09:22:19Z</time>
      </trkpt>
      <trkpt lat="44.54065" lon="1.11913">
        <ele>224.61</ele>
        <time>2023-10-28T09:22:36Z</time>
      </trkpt>
      <trkpt lat="44.54071" lon="1.11916">
        <ele>225.09</ele>
        <time>2023-10-28T09:22:49Z</time>
      </trkpt>
      <trkpt lat="44.54083" lon="1.11919">
        <ele>226.53</ele>
        <time>2023-10-28T09:23:04Z</time>
      </trkpt>
      <trkpt lat="44.54098" lon="1.11921">
        <ele>227.01</ele>
        <time>2023-10-28T09:23:20Z</time>
      </trkpt>
      <trkpt lat="44.54111" lon="1.11924">
        <ele>228.45</ele>
        <time>2023-10-28T09:23:36Z</time>
      </trkpt>
      <trkpt lat="44.54124" lon="1.1193">
        <ele>229.89</ele>
        <time>2023-10-28T09:23:51Z</time>
      </trkpt>
      <trkpt lat="44.54135" lon="1.11936">
        <ele>230.37</ele>
        <time>2023-10-28T09:24:06Z</time>
      </trkpt>
      <trkpt lat="44.54149" lon="1.11946">
        <ele>230.85</ele>
        <time>2023-10-28T09:24:20Z</time>
      </trkpt>
      <trkpt lat="44.5416" lon="1.11957">
        <ele>231.33</ele>
        <time>2023-10-28T09:24:34Z</time>
      </trkpt>
      <trkpt lat="44.5417" lon="1.11968">
        <ele>231.33</ele>
        <time>2023-10-28T09:24:48Z</time>
      </trkpt>
      <trkpt lat="44.54179" lon="1.1198">
        <ele>231.81</ele>
        <time>2023-10-28T09:25:02Z</time>
      </trkpt>
      <trkpt lat="44.54186" lon="1.1199">
        <ele>231.81</ele>
        <time>2023-10-28T09:25:17Z</time>
      </trkpt>
      <trkpt lat="44.54197" lon="1.12006">
        <ele>229.89</ele>
        <time>2023-10-28T09:25:32Z</time>
      </trkpt>
      <trkpt lat="44.54209" lon="1.12021">
        <ele>228.93</ele>
        <time>2023-10-28T09:25:47Z</time>
      </trkpt>
      <trkpt lat="44.54217" lon="1.1203">
        <ele>228.93</ele>
        <time>2023-10-28T09:25:57Z</time>
      </trkpt>
      <trkpt lat="44.5423" lon="1.12047">
        <ele>228.93</ele>
        <time>2023-10-28T09:26:14Z</time>
      </trkpt>
      <trkpt lat="44.54234" lon="1.12056">
        <ele>228.93</ele>
        <time>2023-10-28T09:26:24Z</time>
      </trkpt>
      <trkpt lat="44.54239" lon="1.12066">
        <ele>228.93</ele>
        <time>2023-10-28T09:26:33Z</time>
      </trkpt>
      <trkpt lat="44.54247" lon="1.1208">
        <ele>227.97</ele>
        <time>2023-10-28T09:26:51Z</time>
      </trkpt>
      <trkpt lat="44.54252" lon="1.1209">
        <ele>227.01</ele>
        <time>2023-10-28T09:27:05Z</time>
      </trkpt>
      <trkpt lat="44.54261" lon="1.12112">
        <ele>224.61</ele>
        <time>2023-10-28T09:27:22Z</time>
      </trkpt>
      <trkpt lat="44.54267" lon="1.12125">
        <ele>224.12</ele>
        <time>2023-10-28T09:27:34Z</time>
      </trkpt>
      <trkpt lat="44.54269" lon="1.1213">
        <ele>224.12</ele>
        <time>2023-10-28T09:27:37Z</time>
      </trkpt>
      <trkpt lat="44.54282" lon="1.1215">
        <ele>222.68</ele>
        <time>2023-10-28T09:27:55Z</time>
      </trkpt>
      <trkpt lat="44.54291" lon="1.12168">
        <ele>221.24</ele>
        <time>2023-10-28T09:28:09Z</time>
      </trkpt>
      <trkpt lat="44.54299" lon="1.1218">
        <ele>219.32</ele>
        <time>2023-10-28T09:28:23Z</time>
      </trkpt>
      <trkpt lat="44.54311" lon="1.12193">
        <ele>217.88</ele>
        <time>2023-10-28T09:28:38Z</time>
      </trkpt>
      <trkpt lat="44.5432" lon="1.12208">
        <ele>216.43</ele>
        <time>2023-10-28T09:28:52Z</time>
      </trkpt>
      <trkpt lat="44.54328" lon="1.12224">
        <ele>214.51</ele>
        <time>2023-10-28T09:29:07Z</time>
      </trkpt>
      <trkpt lat="44.54338" lon="1.12243">
        <ele>212.11</ele>
        <time>2023-10-28T09:29:25Z</time>
      </trkpt>
      <trkpt lat="44.54346" lon="1.12264">
        <ele>211.15</ele>
        <time>2023-10-28T09:29:39Z</time>
      </trkpt>
      <trkpt lat="44.54352" lon="1.12284">
        <ele>210.67</ele>
        <time>2023-10-28T09:29:55Z</time>
      </trkpt>
      <trkpt lat="44.54359" lon="1.1231">
        <ele>210.67</ele>
        <time>2023-10-28T09:30:13Z</time>
      </trkpt>
      <trkpt lat="44.54364" lon="1.12331">
        <ele>210.67</ele>
        <time>2023-10-28T09:30:28Z</time>
      </trkpt>
      <trkpt lat="44.54371" lon="1.12343">
        <ele>210.67</ele>
        <time>2023-10-28T09:30:42Z</time>
      </trkpt>
      <trkpt lat="44.54372" lon="1.12344">
        <ele>210.67</ele>
        <time>2023-10-28T09:30:43Z</time>
      </trkpt>
      <trkpt lat="44.54382" lon="1.12348">
        <ele>210.67</ele>
        <time>2023-10-28T09:30:52Z</time>
      </trkpt>
      <trkpt lat="44.54394" lon="1.12349">
        <ele>210.67</ele>
        <time>2023-10-28T09:31:07Z</time>
      </trkpt>
      <trkpt lat="44.54393" lon="1.12344">
        <ele>210.67</ele>
        <time>2023-10-28T09:31:30Z</time>
      </trkpt>
      <trkpt lat="44.54407" lon="1.1234">
        <ele>210.67</ele>
        <time>2023-10-28T09:31:44Z</time>
      </trkpt>
      <trkpt lat="44.54408" lon="1.12343">
        <ele>211.15</ele>
        <time>2023-10-28T09:32:02Z</time>
      </trkpt>
      <trkpt lat="44.54408" lon="1.12334">
        <ele>211.63</ele>
        <time>2023-10-28T09:32:19Z</time>
      </trkpt>
      <trkpt lat="44.54425" lon="1.12331">
        <ele>211.15</ele>
        <time>2023-10-28T09:32:34Z</time>
      </trkpt>
      <trkpt lat="44.54444" lon="1.1232">
        <ele>211.15</ele>
        <time>2023-10-28T09:32:51Z</time>
      </trkpt>
      <trkpt lat="44.54459" lon="1.12301">
        <ele>211.15</ele>
        <time>2023-10-28T09:33:09Z</time>
      </trkpt>
      <trkpt lat="44.5447" lon="1.12283">
        <ele>211.63</ele>
        <time>2023-10-28T09:33:26Z</time>
      </trkpt>
      <trkpt lat="44.54479" lon="1.12283">
        <ele>213.07</ele>
        <time>2023-10-28T09:33:40Z</time>
      </trkpt>
      <trkpt lat="44.5448" lon="1.12282">
        <ele>214.99</ele>
        <time>2023-10-28T09:33:44Z</time>
      </trkpt>
      <trkpt lat="44.54488" lon="1.12275">
        <ele>216.43</ele>
        <time>2023-10-28T09:34:02Z</time>
      </trkpt>
      <trkpt lat="44.54495" lon="1.12268">
        <ele>218.36</ele>
        <time>2023-10-28T09:34:17Z</time>
      </trkpt>
      <trkpt lat="44.54505" lon="1.12257">
        <ele>220.28</ele>
        <time>2023-10-28T09:34:33Z</time>
      </trkpt>
      <trkpt lat="44.54511" lon="1.12247">
        <ele>221.72</ele>
        <time>2023-10-28T09:34:52Z</time>
      </trkpt>
      <trkpt lat="44.54515" lon="1.12241">
        <ele>223.64</ele>
        <time>2023-10-28T09:35:09Z</time>
      </trkpt>
      <trkpt lat="44.54521" lon="1.12235">
        <ele>220.28</ele>
        <time>2023-10-28T09:35:23Z</time>
      </trkpt>
      <trkpt lat="44.54522" lon="1.12235">
        <ele>228.45</ele>
        <time>2023-10-28T09:35:24Z</time>
      </trkpt>
      <trkpt lat="44.54522" lon="1.12235">
        <ele>226.05</ele>
        <time>2023-10-28T09:35:25Z</time>
      </trkpt>
      <trkpt lat="44.54523" lon="1.12236">
        <ele>225.57</ele>
        <time>2023-10-28T09:35:27Z</time>
      </trkpt>
      <trkpt lat="44.54529" lon="1.12231">
        <ele>227.49</ele>
        <time>2023-10-28T09:35:43Z</time>
      </trkpt>
      <trkpt lat="44.54534" lon="1.12226">
        <ele>228.45</ele>
        <time>2023-10-28T09:35:59Z</time>
      </trkpt>
      <trkpt lat="44.5454" lon="1.12223">
        <ele>229.89</ele>
        <time>2023-10-28T09:36:14Z</time>
      </trkpt>
      <trkpt lat="44.54543" lon="1.12223">
        <ele>230.85</ele>
        <time>2023-10-28T09:36:28Z</time>
      </trkpt>
      <trkpt lat="44.54543" lon="1.1222">
        <ele>231.33</ele>
        <time>2023-10-28T09:36:45Z</time>
      </trkpt>
      <trkpt lat="44.54542" lon="1.1222">
        <ele>231.33</ele>
        <time>2023-10-28T09:37:02Z</time>
      </trkpt>
      <trkpt lat="44.54549" lon="1.12214">
        <ele>232.78</ele>
        <time>2023-10-28T09:37:17Z</time>
      </trkpt>
      <trkpt lat="44.54556" lon="1.12208">
        <ele>234.22</ele>
        <time>2023-10-28T09:37:32Z</time>
      </trkpt>
      <trkpt lat="44.54562" lon="1.12203">
        <ele>235.18</ele>
        <time>2023-10-28T09:37:47Z</time>
      </trkpt>
      <trkpt lat="44.54568" lon="1.12199">
        <ele>236.14</ele>
        <time>2023-10-28T09:38:00Z</time>
      </trkpt>
      <trkpt lat="44.54572" lon="1.12196">
        <ele>237.58</ele>
        <time>2023-10-28T09:38:08Z</time>
      </trkpt>
      <trkpt lat="44.54582" lon="1.12187">
        <ele>236.62</ele>
        <time>2023-10-28T09:38:23Z</time>
      </trkpt>
      <trkpt lat="44.54591" lon="1.12179">
        <ele>238.54</ele>
        <time>2023-10-28T09:38:38Z</time>
      </trkpt>
      <trkpt lat="44.54599" lon="1.12174">
        <ele>239.51</ele>
        <time>2023-10-28T09:38:52Z</time>
      </trkpt>
      <trkpt lat="44.54603" lon="1.12167">
        <ele>240.47</ele>
        <time>2023-10-28T09:39:08Z</time>
      </trkpt>
      <trkpt lat="44.54602" lon="1.1217">
        <ele>240.47</ele>
        <time>2023-10-28T09:39:29Z</time>
      </trkpt>
      <trkpt lat="44.54604" lon="1.12168">
        <ele>240.47</ele>
        <time>2023-10-28T09:39:50Z</time>
      </trkpt>
      <trkpt lat="44.54604" lon="1.12166">
        <ele>240.47</ele>
        <time>2023-10-28T09:40:09Z</time>
      </trkpt>
      <trkpt lat="44.54606" lon="1.12167">
        <ele>241.43</ele>
        <time>2023-10-28T09:40:25Z</time>
      </trkpt>
      <trkpt lat="44.54608" lon="1.12164">
        <ele>241.43</ele>
        <time>2023-10-28T09:40:41Z</time>
      </trkpt>
      <trkpt lat="44.54608" lon="1.12164">
        <ele>239.99</ele>
        <time>2023-10-28T09:40:56Z</time>
      </trkpt>
      <trkpt lat="44.5461" lon="1.12164">
        <ele>240.95</ele>
        <time>2023-10-28T09:41:13Z</time>
      </trkpt>
      <trkpt lat="44.5461" lon="1.12164">
        <ele>240.95</ele>
        <time>2023-10-28T09:41:32Z</time>
      </trkpt>
      <trkpt lat="44.5462" lon="1.12161">
        <ele>240.95</ele>
        <time>2023-10-28T09:41:47Z</time>
      </trkpt>
      <trkpt lat="44.54633" lon="1.12159">
        <ele>241.91</ele>
        <time>2023-10-28T09:42:01Z</time>
      </trkpt>
      <trkpt lat="44.54641" lon="1.1216">
        <ele>242.39</ele>
        <time>2023-10-28T09:42:15Z</time>
      </trkpt>
      <trkpt lat="44.54643" lon="1.12158">
        <ele>242.39</ele>
        <time>2023-10-28T09:42:25Z</time>
      </trkpt>
      <trkpt lat="44.54659" lon="1.12159">
        <ele>242.87</ele>
        <time>2023-10-28T09:42:41Z</time>
      </trkpt>
      <trkpt lat="44.54673" lon="1.12158">
        <ele>242.87</ele>
        <time>2023-10-28T09:42:56Z</time>
      </trkpt>
      <trkpt lat="44.54679" lon="1.12158">
        <ele>242.87</ele>
        <time>2023-10-28T09:43:01Z</time>
      </trkpt>
      <trkpt lat="44.54686" lon="1.12156">
        <ele>242.87</ele>
        <time>2023-10-28T09:43:15Z</time>
      </trkpt>
      <trkpt lat="44.54699" lon="1.1215">
        <ele>241.91</ele>
        <time>2023-10-28T09:43:28Z</time>
      </trkpt>
      <trkpt lat="44.54715" lon="1.12142">
        <ele>241.43</ele>
        <time>2023-10-28T09:43:45Z</time>
      </trkpt>
      <trkpt lat="44.54731" lon="1.12131">
        <ele>240.47</ele>
        <time>2023-10-28T09:44:00Z</time>
      </trkpt>
      <trkpt lat="44.54745" lon="1.1212">
        <ele>240.47</ele>
        <time>2023-10-28T09:44:17Z</time>
      </trkpt>
      <trkpt lat="44.5476" lon="1.12108">
        <ele>240.47</ele>
        <time>2023-10-28T09:44:33Z</time>
      </trkpt>
      <trkpt lat="44.54772" lon="1.12097">
        <ele>241.91</ele>
        <time>2023-10-28T09:44:50Z</time>
      </trkpt>
      <trkpt lat="44.54775" lon="1.12087">
        <ele>241.91</ele>
        <time>2023-10-28T09:44:58Z</time>
      </trkpt>
      <trkpt lat="44.54776" lon="1.12077">
        <ele>239.99</ele>
        <time>2023-10-28T09:45:04Z</time>
      </trkpt>
      <trkpt lat="44.54782" lon="1.12071">
        <ele>239.99</ele>
        <time>2023-10-28T09:45:10Z</time>
      </trkpt>
      <trkpt lat="44.54797" lon="1.12052">
        <ele>240.47</ele>
        <time>2023-10-28T09:45:27Z</time>
      </trkpt>
      <trkpt lat="44.54802" lon="1.12047">
        <ele>241.43</ele>
        <time>2023-10-28T09:45:32Z</time>
      </trkpt>
      <trkpt lat="44.54818" lon="1.12029">
        <ele>241.91</ele>
        <time>2023-10-28T09:45:49Z</time>
      </trkpt>
      <trkpt lat="44.54834" lon="1.12017">
        <ele>243.35</ele>
        <time>2023-10-28T09:46:06Z</time>
      </trkpt>
      <trkpt lat="44.54844" lon="1.12011">
        <ele>243.35</ele>
        <time>2023-10-28T09:46:16Z</time>
      </trkpt>
      <trkpt lat="44.5485" lon="1.12011">
        <ele>243.83</ele>
        <time>2023-10-28T09:46:22Z</time>
      </trkpt>
      <trkpt lat="44.54858" lon="1.12012">
        <ele>243.83</ele>
        <time>2023-10-28T09:46:30Z</time>
      </trkpt>
      <trkpt lat="44.5486" lon="1.12011">
        <ele>243.83</ele>
        <time>2023-10-28T09:46:32Z</time>
      </trkpt>
      <trkpt lat="44.54878" lon="1.12021">
        <ele>245.27</ele>
        <time>2023-10-28T09:46:50Z</time>
      </trkpt>
      <trkpt lat="44.54885" lon="1.12025">
        <ele>245.75</ele>
        <time>2023-10-28T09:46:57Z</time>
      </trkpt>
      <trkpt lat="44.549" lon="1.12034">
        <ele>246.23</ele>
        <time>2023-10-28T09:47:13Z</time>
      </trkpt>
      <trkpt lat="44.54907" lon="1.1204">
        <ele>246.23</ele>
        <time>2023-10-28T09:47:22Z</time>
      </trkpt>
      <trkpt lat="44.54917" lon="1.12049">
        <ele>246.72</ele>
        <time>2023-10-28T09:47:37Z</time>
      </trkpt>
      <trkpt lat="44.54929" lon="1.12049">
        <ele>247.2</ele>
        <time>2023-10-28T09:47:51Z</time>
      </trkpt>
      <trkpt lat="44.54934" lon="1.12045">
        <ele>245.75</ele>
        <time>2023-10-28T09:47:57Z</time>
      </trkpt>
      <trkpt lat="44.54935" lon="1.12043">
        <ele>245.75</ele>
        <time>2023-10-28T09:47:59Z</time>
      </trkpt>
      <trkpt lat="44.5495" lon="1.1203">
        <ele>244.79</ele>
        <time>2023-10-28T09:48:15Z</time>
      </trkpt>
      <trkpt lat="44.54962" lon="1.12022">
        <ele>243.83</ele>
        <time>2023-10-28T09:48:29Z</time>
      </trkpt>
      <trkpt lat="44.5497" lon="1.12007">
        <ele>241.91</ele>
        <time>2023-10-28T09:48:43Z</time>
      </trkpt>
      <trkpt lat="44.54976" lon="1.11993">
        <ele>240.95</ele>
        <time>2023-10-28T09:48:57Z</time>
      </trkpt>
      <trkpt lat="44.54983" lon="1.11974">
        <ele>238.54</ele>
        <time>2023-10-28T09:49:14Z</time>
      </trkpt>
      <trkpt lat="44.54988" lon="1.11959">
        <ele>238.54</ele>
        <time>2023-10-28T09:49:27Z</time>
      </trkpt>
      <trkpt lat="44.54983" lon="1.11949">
        <ele>236.62</ele>
        <time>2023-10-28T09:49:40Z</time>
      </trkpt>
      <trkpt lat="44.54975" lon="1.11951">
        <ele>235.18</ele>
        <time>2023-10-28T09:49:48Z</time>
      </trkpt>
      <trkpt lat="44.54962" lon="1.11951">
        <ele>234.7</ele>
        <time>2023-10-28T09:50:02Z</time>
      </trkpt>
      <trkpt lat="44.54954" lon="1.11956">
        <ele>234.22</ele>
        <time>2023-10-28T09:50:15Z</time>
      </trkpt>
      <trkpt lat="44.54942" lon="1.11957">
        <ele>233.26</ele>
        <time>2023-10-28T09:50:30Z</time>
      </trkpt>
      <trkpt lat="44.54934" lon="1.11946">
        <ele>232.3</ele>
        <time>2023-10-28T09:50:43Z</time>
      </trkpt>
      <trkpt lat="44.54921" lon="1.11926">
        <ele>230.37</ele>
        <time>2023-10-28T09:51:00Z</time>
      </trkpt>
      <trkpt lat="44.54913" lon="1.11909">
        <ele>229.41</ele>
        <time>2023-10-28T09:51:14Z</time>
      </trkpt>
      <trkpt lat="44.54905" lon="1.11896">
        <ele>228.93</ele>
        <time>2023-10-28T09:51:28Z</time>
      </trkpt>
      <trkpt lat="44.54899" lon="1.11883">
        <ele>228.93</ele>
        <time>2023-10-28T09:51:40Z</time>
      </trkpt>
      <trkpt lat="44.5489" lon="1.1187">
        <ele>228.45</ele>
        <time>2023-10-28T09:51:55Z</time>
      </trkpt>
      <trkpt lat="44.54888" lon="1.11864">
        <ele>228.93</ele>
        <time>2023-10-28T09:52:08Z</time>
      </trkpt>
      <trkpt lat="44.54883" lon="1.11854">
        <ele>227.97</ele>
        <time>2023-10-28T09:52:21Z</time>
      </trkpt>
      <trkpt lat="44.54876" lon="1.11842">
        <ele>227.49</ele>
        <time>2023-10-28T09:52:34Z</time>
      </trkpt>
      <trkpt lat="44.54869" lon="1.11831">
        <ele>226.53</ele>
        <time>2023-10-28T09:52:50Z</time>
      </trkpt>
      <trkpt lat="44.54863" lon="1.11824">
        <ele>226.05</ele>
        <time>2023-10-28T09:53:04Z</time>
      </trkpt>
      <trkpt lat="44.54857" lon="1.11817">
        <ele>225.09</ele>
        <time>2023-10-28T09:53:18Z</time>
      </trkpt>
      <trkpt lat="44.54851" lon="1.11809">
        <ele>225.09</ele>
        <time>2023-10-28T09:53:31Z</time>
      </trkpt>
      <trkpt lat="44.54847" lon="1.11806">
        <ele>224.12</ele>
        <time>2023-10-28T09:53:44Z</time>
      </trkpt>
      <trkpt lat="44.54842" lon="1.11802">
        <ele>222.68</ele>
        <time>2023-10-28T09:53:56Z</time>
      </trkpt>
      <trkpt lat="44.54832" lon="1.11789">
        <ele>220.76</ele>
        <time>2023-10-28T09:54:10Z</time>
      </trkpt>
      <trkpt lat="44.54823" lon="1.11776">
        <ele>219.32</ele>
        <time>2023-10-28T09:54:26Z</time>
      </trkpt>
      <trkpt lat="44.54818" lon="1.11769">
        <ele>218.84</ele>
        <time>2023-10-28T09:54:40Z</time>
      </trkpt>
      <trkpt lat="44.5481" lon="1.11758">
        <ele>217.88</ele>
        <time>2023-10-28T09:54:53Z</time>
      </trkpt>
      <trkpt lat="44.54804" lon="1.1175">
        <ele>216.91</ele>
        <time>2023-10-28T09:55:06Z</time>
      </trkpt>
      <trkpt lat="44.54798" lon="1.11744">
        <ele>215.95</ele>
        <time>2023-10-28T09:55:19Z</time>
      </trkpt>
      <trkpt lat="44.54794" lon="1.1174">
        <ele>215.47</ele>
        <time>2023-10-28T09:55:32Z</time>
      </trkpt>
      <trkpt lat="44.54785" lon="1.11733">
        <ele>215.95</ele>
        <time>2023-10-28T09:55:50Z</time>
      </trkpt>
      <trkpt lat="44.54781" lon="1.11728">
        <ele>214.99</ele>
        <time>2023-10-28T09:55:58Z</time>
      </trkpt>
      <trkpt lat="44.54774" lon="1.11719">
        <ele>214.03</ele>
        <time>2023-10-28T09:56:11Z</time>
      </trkpt>
      <trkpt lat="44.54771" lon="1.11716">
        <ele>214.03</ele>
        <time>2023-10-28T09:56:16Z</time>
      </trkpt>
      <trkpt lat="44.54767" lon="1.11712">
        <ele>213.55</ele>
        <time>2023-10-28T09:56:21Z</time>
      </trkpt>
      <trkpt lat="44.5476" lon="1.11705">
        <ele>212.59</ele>
        <time>2023-10-28T09:56:37Z</time>
      </trkpt>
      <trkpt lat="44.54757" lon="1.11698">
        <ele>212.11</ele>
        <time>2023-10-28T09:56:50Z</time>
      </trkpt>
      <trkpt lat="44.54749" lon="1.11689">
        <ele>210.67</ele>
        <time>2023-10-28T09:57:04Z</time>
      </trkpt>
      <trkpt lat="44.54741" lon="1.11682">
        <ele>209.7</ele>
        <time>2023-10-28T09:57:15Z</time>
      </trkpt>
      <trkpt lat="44.54734" lon="1.11676">
        <ele>208.26</ele>
        <time>2023-10-28T09:57:28Z</time>
      </trkpt>
      <trkpt lat="44.54727" lon="1.11671">
        <ele>207.3</ele>
        <time>2023-10-28T09:57:41Z</time>
      </trkpt>
      <trkpt lat="44.54723" lon="1.11669">
        <ele>206.82</ele>
        <time>2023-10-28T09:57:55Z</time>
      </trkpt>
      <trkpt lat="44.5472" lon="1.11663">
        <ele>206.34</ele>
        <time>2023-10-28T09:58:09Z</time>
      </trkpt>
      <trkpt lat="44.54714" lon="1.11658">
        <ele>206.34</ele>
        <time>2023-10-28T09:58:24Z</time>
      </trkpt>
      <trkpt lat="44.54713" lon="1.11658">
        <ele>205.38</ele>
        <time>2023-10-28T09:58:26Z</time>
      </trkpt>
      <trkpt lat="44.54703" lon="1.11646">
        <ele>204.9</ele>
        <time>2023-10-28T09:58:40Z</time>
      </trkpt>
      <trkpt lat="44.54693" lon="1.11634">
        <ele>203.94</ele>
        <time>2023-10-28T09:58:52Z</time>
      </trkpt>
      <trkpt lat="44.54684" lon="1.11625">
        <ele>202.98</ele>
        <time>2023-10-28T09:59:07Z</time>
      </trkpt>
      <trkpt lat="44.54677" lon="1.11612">
        <ele>202.49</ele>
        <time>2023-10-28T09:59:21Z</time>
      </trkpt>
      <trkpt lat="44.54671" lon="1.11602">
        <ele>202.01</ele>
        <time>2023-10-28T09:59:28Z</time>
      </trkpt>
      <trkpt lat="44.54663" lon="1.11589">
        <ele>202.98</ele>
        <time>2023-10-28T09:59:41Z</time>
      </trkpt>
      <trkpt lat="44.5466" lon="1.11585">
        <ele>200.57</ele>
        <time>2023-10-28T09:59:56Z</time>
      </trkpt>
      <trkpt lat="44.54655" lon="1.11572">
        <ele>200.09</ele>
        <time>2023-10-28T10:00:10Z</time>
      </trkpt>
      <trkpt lat="44.54651" lon="1.11563">
        <ele>199.61</ele>
        <time>2023-10-28T10:00:30Z</time>
      </trkpt>
      <trkpt lat="44.5465" lon="1.11563">
        <ele>201.05</ele>
        <time>2023-10-28T10:00:44Z</time>
      </trkpt>
      <trkpt lat="44.54648" lon="1.11551">
        <ele>199.61</ele>
        <time>2023-10-28T10:00:58Z</time>
      </trkpt>
      <trkpt lat="44.54645" lon="1.11538">
        <ele>199.13</ele>
        <time>2023-10-28T10:01:11Z</time>
      </trkpt>
      <trkpt lat="44.54641" lon="1.11522">
        <ele>198.65</ele>
        <time>2023-10-28T10:01:26Z</time>
      </trkpt>
      <trkpt lat="44.54638" lon="1.11517">
        <ele>198.65</ele>
        <time>2023-10-28T10:01:30Z</time>
      </trkpt>
      <trkpt lat="44.54632" lon="1.11498">
        <ele>197.69</ele>
        <time>2023-10-28T10:01:44Z</time>
      </trkpt>
      <trkpt lat="44.54623" lon="1.11479">
        <ele>197.69</ele>
        <time>2023-10-28T10:01:59Z</time>
      </trkpt>
      <trkpt lat="44.54616" lon="1.11466">
        <ele>197.69</ele>
        <time>2023-10-28T10:02:14Z</time>
      </trkpt>
      <trkpt lat="44.54608" lon="1.11458">
        <ele>197.21</ele>
        <time>2023-10-28T10:02:27Z</time>
      </trkpt>
      <trkpt lat="44.54596" lon="1.11449">
        <ele>196.73</ele>
        <time>2023-10-28T10:02:43Z</time>
      </trkpt>
      <trkpt lat="44.54587" lon="1.11437">
        <ele>196.73</ele>
        <time>2023-10-28T10:02:56Z</time>
      </trkpt>
      <trkpt lat="44.54579" lon="1.11427">
        <ele>197.21</ele>
        <time>2023-10-28T10:03:08Z</time>
      </trkpt>
      <trkpt lat="44.54572" lon="1.11417">
        <ele>199.61</ele>
        <time>2023-10-28T10:03:21Z</time>
      </trkpt>
      <trkpt lat="44.5457" lon="1.11405">
        <ele>198.17</ele>
        <time>2023-10-28T10:03:35Z</time>
      </trkpt>
      <trkpt lat="44.54566" lon="1.1139">
        <ele>199.61</ele>
        <time>2023-10-28T10:03:58Z</time>
      </trkpt>
      <trkpt lat="44.54562" lon="1.1138">
        <ele>201.05</ele>
        <time>2023-10-28T10:04:08Z</time>
      </trkpt>
      <trkpt lat="44.54556" lon="1.11367">
        <ele>202.01</ele>
        <time>2023-10-28T10:04:23Z</time>
      </trkpt>
      <trkpt lat="44.5455" lon="1.11359">
        <ele>202.49</ele>
        <time>2023-10-28T10:04:35Z</time>
      </trkpt>
      <trkpt lat="44.5455" lon="1.11356">
        <ele>203.46</ele>
        <time>2023-10-28T10:04:55Z</time>
      </trkpt>
      <trkpt lat="44.54542" lon="1.11345">
        <ele>203.46</ele>
        <time>2023-10-28T10:05:12Z</time>
      </trkpt>
      <trkpt lat="44.54538" lon="1.11339">
        <ele>204.42</ele>
        <time>2023-10-28T10:05:31Z</time>
      </trkpt>
      <trkpt lat="44.5453" lon="1.11331">
        <ele>205.86</ele>
        <time>2023-10-28T10:05:44Z</time>
      </trkpt>
      <trkpt lat="44.5452" lon="1.11321">
        <ele>207.3</ele>
        <time>2023-10-28T10:06:02Z</time>
      </trkpt>
      <trkpt lat="44.54511" lon="1.11313">
        <ele>209.22</ele>
        <time>2023-10-28T10:06:18Z</time>
      </trkpt>
      <trkpt lat="44.54508" lon="1.11312">
        <ele>210.67</ele>
        <time>2023-10-28T10:06:25Z</time>
      </trkpt>
      <trkpt lat="44.54501" lon="1.11308">
        <ele>211.63</ele>
        <time>2023-10-28T10:06:38Z</time>
      </trkpt>
      <trkpt lat="44.54493" lon="1.11302">
        <ele>213.55</ele>
        <time>2023-10-28T10:06:54Z</time>
      </trkpt>
      <trkpt lat="44.54487" lon="1.11297">
        <ele>215.47</ele>
        <time>2023-10-28T10:07:09Z</time>
      </trkpt>
      <trkpt lat="44.54487" lon="1.11294">
        <ele>215.95</ele>
        <time>2023-10-28T10:07:30Z</time>
      </trkpt>
      <trkpt lat="44.54486" lon="1.11297">
        <ele>215.95</ele>
        <time>2023-10-28T10:07:50Z</time>
      </trkpt>
      <trkpt lat="44.54478" lon="1.11293">
        <ele>216.43</ele>
        <time>2023-10-28T10:08:05Z</time>
      </trkpt>
      <trkpt lat="44.54467" lon="1.11287">
        <ele>217.88</ele>
        <time>2023-10-28T10:08:21Z</time>
      </trkpt>
      <trkpt lat="44.54464" lon="1.11287">
        <ele>218.36</ele>
        <time>2023-10-28T10:08:37Z</time>
      </trkpt>
      <trkpt lat="44.54455" lon="1.11287">
        <ele>219.32</ele>
        <time>2023-10-28T10:08:51Z</time>
      </trkpt>
      <trkpt lat="44.54443" lon="1.11287">
        <ele>220.28</ele>
        <time>2023-10-28T10:09:06Z</time>
      </trkpt>
      <trkpt lat="44.54439" lon="1.11286">
        <ele>220.28</ele>
        <time>2023-10-28T10:09:22Z</time>
      </trkpt>
      <trkpt lat="44.54436" lon="1.11265">
        <ele>220.28</ele>
        <time>2023-10-28T10:09:35Z</time>
      </trkpt>
      <trkpt lat="44.54433" lon="1.11253">
        <ele>220.28</ele>
        <time>2023-10-28T10:09:44Z</time>
      </trkpt>
      <trkpt lat="44.54428" lon="1.11234">
        <ele>220.28</ele>
        <time>2023-10-28T10:09:57Z</time>
      </trkpt>
      <trkpt lat="44.54421" lon="1.11208">
        <ele>220.28</ele>
        <time>2023-10-28T10:10:14Z</time>
      </trkpt>
      <trkpt lat="44.54417" lon="1.11189">
        <ele>218.84</ele>
        <time>2023-10-28T10:10:27Z</time>
      </trkpt>
      <trkpt lat="44.54417" lon="1.11182">
        <ele>218.84</ele>
        <time>2023-10-28T10:10:32Z</time>
      </trkpt>
      <trkpt lat="44.54414" lon="1.11172">
        <ele>218.84</ele>
        <time>2023-10-28T10:10:46Z</time>
      </trkpt>
      <trkpt lat="44.54414" lon="1.11153">
        <ele>218.84</ele>
        <time>2023-10-28T10:11:02Z</time>
      </trkpt>
      <trkpt lat="44.54411" lon="1.11137">
        <ele>220.28</ele>
        <time>2023-10-28T10:11:16Z</time>
      </trkpt>
      <trkpt lat="44.54409" lon="1.11118">
        <ele>221.24</ele>
        <time>2023-10-28T10:11:30Z</time>
      </trkpt>
      <trkpt lat="44.54413" lon="1.11105">
        <ele>221.24</ele>
        <time>2023-10-28T10:11:44Z</time>
      </trkpt>
      <trkpt lat="44.54425" lon="1.11096">
        <ele>220.28</ele>
        <time>2023-10-28T10:11:59Z</time>
      </trkpt>
      <trkpt lat="44.54429" lon="1.11092">
        <ele>221.24</ele>
        <time>2023-10-28T10:12:13Z</time>
      </trkpt>
      <trkpt lat="44.54429" lon="1.11092">
        <ele>221.24</ele>
        <time>2023-10-28T10:12:14Z</time>
      </trkpt>
      <trkpt lat="44.54431" lon="1.11092">
        <ele>219.8</ele>
        <time>2023-10-28T10:12:16Z</time>
      </trkpt>
      <trkpt lat="44.54443" lon="1.11087">
        <ele>219.32</ele>
        <time>2023-10-28T10:12:36Z</time>
      </trkpt>
      <trkpt lat="44.54454" lon="1.11075">
        <ele>218.84</ele>
        <time>2023-10-28T10:12:49Z</time>
      </trkpt>
      <trkpt lat="44.54463" lon="1.11067">
        <ele>217.4</ele>
        <time>2023-10-28T10:13:04Z</time>
      </trkpt>
      <trkpt lat="44.54471" lon="1.11058">
        <ele>215.95</ele>
        <time>2023-10-28T10:13:18Z</time>
      </trkpt>
      <trkpt lat="44.5448" lon="1.11051">
        <ele>214.99</ele>
        <time>2023-10-28T10:13:31Z</time>
      </trkpt>
      <trkpt lat="44.54487" lon="1.11047">
        <ele>214.03</ele>
        <time>2023-10-28T10:13:47Z</time>
      </trkpt>
      <trkpt lat="44.54496" lon="1.11036">
        <ele>213.55</ele>
        <time>2023-10-28T10:14:00Z</time>
      </trkpt>
      <trkpt lat="44.54504" lon="1.11027">
        <ele>212.59</ele>
        <time>2023-10-28T10:14:12Z</time>
      </trkpt>
      <trkpt lat="44.54514" lon="1.11023">
        <ele>211.15</ele>
        <time>2023-10-28T10:14:28Z</time>
      </trkpt>
      <trkpt lat="44.54525" lon="1.11021">
        <ele>209.7</ele>
        <time>2023-10-28T10:14:42Z</time>
      </trkpt>
      <trkpt lat="44.54536" lon="1.11015">
        <ele>208.26</ele>
        <time>2023-10-28T10:14:56Z</time>
      </trkpt>
      <trkpt lat="44.54546" lon="1.1101">
        <ele>206.34</ele>
        <time>2023-10-28T10:15:12Z</time>
      </trkpt>
      <trkpt lat="44.54557" lon="1.11005">
        <ele>205.38</ele>
        <time>2023-10-28T10:15:25Z</time>
      </trkpt>
      <trkpt lat="44.54566" lon="1.10999">
        <ele>204.42</ele>
        <time>2023-10-28T10:15:38Z</time>
      </trkpt>
      <trkpt lat="44.54575" lon="1.10994">
        <ele>202.98</ele>
        <time>2023-10-28T10:15:53Z</time>
      </trkpt>
      <trkpt lat="44.54585" lon="1.10989">
        <ele>202.01</ele>
        <time>2023-10-28T10:16:08Z</time>
      </trkpt>
      <trkpt lat="44.54597" lon="1.10982">
        <ele>200.57</ele>
        <time>2023-10-28T10:16:21Z</time>
      </trkpt>
      <trkpt lat="44.54603" lon="1.10979">
        <ele>200.09</ele>
        <time>2023-10-28T10:16:34Z</time>
      </trkpt>
      <trkpt lat="44.54613" lon="1.10974">
        <ele>199.13</ele>
        <time>2023-10-28T10:16:45Z</time>
      </trkpt>
      <trkpt lat="44.54628" lon="1.10968">
        <ele>197.69</ele>
        <time>2023-10-28T10:17:00Z</time>
      </trkpt>
      <trkpt lat="44.54641" lon="1.10963">
        <ele>196.25</ele>
        <time>2023-10-28T10:17:14Z</time>
      </trkpt>
      <trkpt lat="44.54654" lon="1.10952">
        <ele>194.32</ele>
        <time>2023-10-28T10:17:32Z</time>
      </trkpt>
      <trkpt lat="44.54661" lon="1.10936">
        <ele>192.88</ele>
        <time>2023-10-28T10:17:47Z</time>
      </trkpt>
      <trkpt lat="44.54662" lon="1.10918">
        <ele>191.44</ele>
        <time>2023-10-28T10:18:01Z</time>
      </trkpt>
      <trkpt lat="44.54663" lon="1.10898">
        <ele>190.48</ele>
        <time>2023-10-28T10:18:16Z</time>
      </trkpt>
      <trkpt lat="44.5467" lon="1.10888">
        <ele>190.96</ele>
        <time>2023-10-28T10:18:30Z</time>
      </trkpt>
      <trkpt lat="44.54679" lon="1.10889">
        <ele>190.96</ele>
        <time>2023-10-28T10:18:43Z</time>
      </trkpt>
      <trkpt lat="44.5469" lon="1.10887">
        <ele>191.92</ele>
        <time>2023-10-28T10:18:57Z</time>
      </trkpt>
      <trkpt lat="44.54705" lon="1.10885">
        <ele>191.92</ele>
        <time>2023-10-28T10:19:11Z</time>
      </trkpt>
      <trkpt lat="44.54715" lon="1.10885">
        <ele>191.92</ele>
        <time>2023-10-28T10:19:24Z</time>
      </trkpt>
      <trkpt lat="44.54726" lon="1.10882">
        <ele>189.52</ele>
        <time>2023-10-28T10:19:40Z</time>
      </trkpt>
      <trkpt lat="44.54733" lon="1.10883">
        <ele>188.56</ele>
        <time>2023-10-28T10:19:56Z</time>
      </trkpt>
      <trkpt lat="44.54744" lon="1.10875">
        <ele>187.11</ele>
        <time>2023-10-28T10:20:16Z</time>
      </trkpt>
      <trkpt lat="44.54747" lon="1.10871">
        <ele>186.63</ele>
        <time>2023-10-28T10:20:28Z</time>
      </trkpt>
      <trkpt lat="44.54747" lon="1.10862">
        <ele>186.63</ele>
        <time>2023-10-28T10:20:47Z</time>
      </trkpt>
      <trkpt lat="44.54748" lon="1.10855">
        <ele>186.63</ele>
        <time>2023-10-28T10:20:51Z</time>
      </trkpt>
      <trkpt lat="44.54749" lon="1.10841">
        <ele>186.63</ele>
        <time>2023-10-28T10:21:00Z</time>
      </trkpt>
      <trkpt lat="44.5475" lon="1.10831">
        <ele>186.15</ele>
        <time>2023-10-28T10:21:11Z</time>
      </trkpt>
      <trkpt lat="44.54748" lon="1.10814">
        <ele>186.15</ele>
        <time>2023-10-28T10:21:24Z</time>
      </trkpt>
      <trkpt lat="44.54744" lon="1.10808">
        <ele>186.15</ele>
        <time>2023-10-28T10:21:30Z</time>
      </trkpt>
      <trkpt lat="44.54742" lon="1.10802">
        <ele>185.67</ele>
        <time>2023-10-28T10:21:34Z</time>
      </trkpt>
      <trkpt lat="44.5474" lon="1.10784">
        <ele>185.67</ele>
        <time>2023-10-28T10:21:47Z</time>
      </trkpt>
      <trkpt lat="44.54739" lon="1.10765">
        <ele>185.67</ele>
        <time>2023-10-28T10:22:00Z</time>
      </trkpt>
      <trkpt lat="44.54739" lon="1.10746">
        <ele>185.19</ele>
        <time>2023-10-28T10:22:14Z</time>
      </trkpt>
      <trkpt lat="44.54737" lon="1.10724">
        <ele>184.71</ele>
        <time>2023-10-28T10:22:30Z</time>
      </trkpt>
      <trkpt lat="44.54737" lon="1.10723">
        <ele>184.71</ele>
        <time>2023-10-28T10:22:31Z</time>
      </trkpt>
      <trkpt lat="44.54735" lon="1.10703">
        <ele>184.71</ele>
        <time>2023-10-28T10:22:45Z</time>
      </trkpt>
      <trkpt lat="44.54734" lon="1.10684">
        <ele>184.23</ele>
        <time>2023-10-28T10:23:01Z</time>
      </trkpt>
      <trkpt lat="44.54739" lon="1.1067">
        <ele>184.23</ele>
        <time>2023-10-28T10:23:16Z</time>
      </trkpt>
      <trkpt lat="44.54742" lon="1.10663">
        <ele>183.75</ele>
        <time>2023-10-28T10:23:28Z</time>
      </trkpt>
      <trkpt lat="44.54749" lon="1.10654">
        <ele>183.75</ele>
        <time>2023-10-28T10:23:44Z</time>
      </trkpt>
      <trkpt lat="44.54754" lon="1.10642">
        <ele>183.27</ele>
        <time>2023-10-28T10:23:59Z</time>
      </trkpt>
      <trkpt lat="44.54756" lon="1.10639">
        <ele>184.71</ele>
        <time>2023-10-28T10:24:13Z</time>
      </trkpt>
      <trkpt lat="44.54762" lon="1.10645">
        <ele>183.75</ele>
        <time>2023-10-28T10:24:33Z</time>
      </trkpt>
      <trkpt lat="44.54769" lon="1.10638">
        <ele>182.79</ele>
        <time>2023-10-28T10:24:48Z</time>
      </trkpt>
      <trkpt lat="44.54773" lon="1.10637">
        <ele>182.79</ele>
        <time>2023-10-28T10:25:03Z</time>
      </trkpt>
      <trkpt lat="44.54779" lon="1.10624">
        <ele>182.31</ele>
        <time>2023-10-28T10:25:17Z</time>
      </trkpt>
      <trkpt lat="44.54783" lon="1.10617">
        <ele>182.31</ele>
        <time>2023-10-28T10:25:30Z</time>
      </trkpt>
      <trkpt lat="44.54791" lon="1.10606">
        <ele>181.35</ele>
        <time>2023-10-28T10:25:45Z</time>
      </trkpt>
      <trkpt lat="44.54801" lon="1.10597">
        <ele>180.38</ele>
        <time>2023-10-28T10:25:58Z</time>
      </trkpt>
      <trkpt lat="44.54802" lon="1.10595">
        <ele>177.5</ele>
        <time>2023-10-28T10:26:07Z</time>
      </trkpt>
      <trkpt lat="44.54802" lon="1.10595">
        <ele>177.5</ele>
        <time>2023-10-28T10:26:08Z</time>
      </trkpt>
      <trkpt lat="44.548" lon="1.10598">
        <ele>185.67</ele>
        <time>2023-10-28T10:26:12Z</time>
      </trkpt>
      <trkpt lat="44.548" lon="1.10598">
        <ele>182.79</ele>
        <time>2023-10-28T10:26:13Z</time>
      </trkpt>
      <trkpt lat="44.54808" lon="1.10594">
        <ele>179.42</ele>
        <time>2023-10-28T10:26:22Z</time>
      </trkpt>
      <trkpt lat="44.54818" lon="1.10578">
        <ele>178.94</ele>
        <time>2023-10-28T10:26:35Z</time>
      </trkpt>
      <trkpt lat="44.54827" lon="1.10566">
        <ele>178.46</ele>
        <time>2023-10-28T10:26:48Z</time>
      </trkpt>
      <trkpt lat="44.54837" lon="1.10557">
        <ele>177.98</ele>
        <time>2023-10-28T10:27:03Z</time>
      </trkpt>
      <trkpt lat="44.54848" lon="1.10547">
        <ele>177.5</ele>
        <time>2023-10-28T10:27:19Z</time>
      </trkpt>
      <trkpt lat="44.54856" lon="1.10541">
        <ele>177.02</ele>
        <time>2023-10-28T10:27:32Z</time>
      </trkpt>
      <trkpt lat="44.54861" lon="1.10535">
        <ele>176.54</ele>
        <time>2023-10-28T10:27:45Z</time>
      </trkpt>
      <trkpt lat="44.54868" lon="1.10532">
        <ele>175.58</ele>
        <time>2023-10-28T10:28:02Z</time>
      </trkpt>
      <trkpt lat="44.54872" lon="1.10528">
        <ele>174.62</ele>
        <time>2023-10-28T10:28:09Z</time>
      </trkpt>
      <trkpt lat="44.54871" lon="1.10512">
        <ele>174.14</ele>
        <time>2023-10-28T10:28:24Z</time>
      </trkpt>
      <trkpt lat="44.54873" lon="1.10514">
        <ele>173.66</ele>
        <time>2023-10-28T10:28:41Z</time>
      </trkpt>
      <trkpt lat="44.54875" lon="1.10521">
        <ele>173.17</ele>
        <time>2023-10-28T10:28:56Z</time>
      </trkpt>
      <trkpt lat="44.54882" lon="1.10519">
        <ele>173.17</ele>
        <time>2023-10-28T10:29:10Z</time>
      </trkpt>
      <trkpt lat="44.54878" lon="1.10508">
        <ele>172.21</ele>
        <time>2023-10-28T10:29:27Z</time>
      </trkpt>
      <trkpt lat="44.54876" lon="1.10495">
        <ele>172.21</ele>
        <time>2023-10-28T10:29:40Z</time>
      </trkpt>
      <trkpt lat="44.54876" lon="1.10487">
        <ele>171.25</ele>
        <time>2023-10-28T10:29:55Z</time>
      </trkpt>
      <trkpt lat="44.54872" lon="1.10482">
        <ele>169.81</ele>
        <time>2023-10-28T10:30:13Z</time>
      </trkpt>
      <trkpt lat="44.54875" lon="1.10487">
        <ele>168.85</ele>
        <time>2023-10-28T10:30:36Z</time>
      </trkpt>
      <trkpt lat="44.54878" lon="1.10481">
        <ele>168.85</ele>
        <time>2023-10-28T10:30:59Z</time>
      </trkpt>
      <trkpt lat="44.54872" lon="1.10484">
        <ele>168.85</ele>
        <time>2023-10-28T10:31:26Z</time>
      </trkpt>
      <trkpt lat="44.54874" lon="1.10482">
        <ele>168.85</ele>
        <time>2023-10-28T10:31:45Z</time>
      </trkpt>
      <trkpt lat="44.54877" lon="1.10478">
        <ele>168.37</ele>
        <time>2023-10-28T10:32:03Z</time>
      </trkpt>
      <trkpt lat="44.54874" lon="1.1047">
        <ele>166.93</ele>
        <time>2023-10-28T10:32:26Z</time>
      </trkpt>
      <trkpt lat="44.54874" lon="1.10466">
        <ele>165.48</ele>
        <time>2023-10-28T10:32:40Z</time>
      </trkpt>
      <trkpt lat="44.54873" lon="1.10457">
        <ele>164.04</ele>
        <time>2023-10-28T10:32:58Z</time>
      </trkpt>
      <trkpt lat="44.54873" lon="1.10456">
        <ele>163.08</ele>
        <time>2023-10-28T10:33:13Z</time>
      </trkpt>
      <trkpt lat="44.54869" lon="1.1045">
        <ele>163.08</ele>
        <time>2023-10-28T10:33:28Z</time>
      </trkpt>
      <trkpt lat="44.54866" lon="1.10445">
        <ele>163.08</ele>
        <time>2023-10-28T10:33:44Z</time>
      </trkpt>
      <trkpt lat="44.54869" lon="1.10441">
        <ele>163.08</ele>
        <time>2023-10-28T10:33:56Z</time>
      </trkpt>
      <trkpt lat="44.54877" lon="1.10429">
        <ele>163.08</ele>
        <time>2023-10-28T10:34:10Z</time>
      </trkpt>
      <trkpt lat="44.54882" lon="1.10432">
        <ele>163.08</ele>
        <time>2023-10-28T10:34:23Z</time>
      </trkpt>
      <trkpt lat="44.54876" lon="1.10429">
        <ele>163.08</ele>
        <time>2023-10-28T10:34:41Z</time>
      </trkpt>
      <trkpt lat="44.54873" lon="1.10425">
        <ele>163.08</ele>
        <time>2023-10-28T10:34:57Z</time>
      </trkpt>
      <trkpt lat="44.54867" lon="1.10415">
        <ele>163.08</ele>
        <time>2023-10-28T10:35:10Z</time>
      </trkpt>
      <trkpt lat="44.54863" lon="1.104">
        <ele>164.52</ele>
        <time>2023-10-28T10:35:22Z</time>
      </trkpt>
      <trkpt lat="44.54866" lon="1.10392">
        <ele>165</ele>
        <time>2023-10-28T10:35:36Z</time>
      </trkpt>
      <trkpt lat="44.54869" lon="1.10392">
        <ele>165.96</ele>
        <time>2023-10-28T10:35:39Z</time>
      </trkpt>
      <trkpt lat="44.54883" lon="1.10398">
        <ele>164.04</ele>
        <time>2023-10-28T10:35:53Z</time>
      </trkpt>
      <trkpt lat="44.54895" lon="1.10403">
        <ele>162.6</ele>
        <time>2023-10-28T10:36:08Z</time>
      </trkpt>
      <trkpt lat="44.54907" lon="1.10398">
        <ele>161.64</ele>
        <time>2023-10-28T10:36:21Z</time>
      </trkpt>
      <trkpt lat="44.54915" lon="1.10393">
        <ele>161.16</ele>
        <time>2023-10-28T10:36:30Z</time>
      </trkpt>
      <trkpt lat="44.54933" lon="1.10378">
        <ele>160.2</ele>
        <time>2023-10-28T10:36:48Z</time>
      </trkpt>
      <trkpt lat="44.54935" lon="1.10375">
        <ele>160.2</ele>
        <time>2023-10-28T10:36:50Z</time>
      </trkpt>
      <trkpt lat="44.54936" lon="1.10372">
        <ele>160.2</ele>
        <time>2023-10-28T10:36:52Z</time>
      </trkpt>
      <trkpt lat="44.54941" lon="1.10356">
        <ele>159.72</ele>
        <time>2023-10-28T10:37:03Z</time>
      </trkpt>
      <trkpt lat="44.54944" lon="1.10352">
        <ele>159.72</ele>
        <time>2023-10-28T10:37:06Z</time>
      </trkpt>
      <trkpt lat="44.54953" lon="1.10331">
        <ele>159.24</ele>
        <time>2023-10-28T10:37:21Z</time>
      </trkpt>
      <trkpt lat="44.54958" lon="1.10312">
        <ele>158.75</ele>
        <time>2023-10-28T10:37:34Z</time>
      </trkpt>
      <trkpt lat="44.54964" lon="1.10297">
        <ele>158.27</ele>
        <time>2023-10-28T10:37:46Z</time>
      </trkpt>
      <trkpt lat="44.54964" lon="1.10286">
        <ele>158.27</ele>
        <time>2023-10-28T10:37:53Z</time>
      </trkpt>
      <trkpt lat="44.54964" lon="1.10283">
        <ele>158.27</ele>
        <time>2023-10-28T10:37:55Z</time>
      </trkpt>
      <trkpt lat="44.54969" lon="1.1026">
        <ele>158.27</ele>
        <time>2023-10-28T10:38:11Z</time>
      </trkpt>
      <trkpt lat="44.54972" lon="1.10237">
        <ele>157.79</ele>
        <time>2023-10-28T10:38:27Z</time>
      </trkpt>
      <trkpt lat="44.54971" lon="1.10218">
        <ele>157.79</ele>
        <time>2023-10-28T10:38:42Z</time>
      </trkpt>
      <trkpt lat="44.54968" lon="1.10211">
        <ele>157.79</ele>
        <time>2023-10-28T10:38:56Z</time>
      </trkpt>
      <trkpt lat="44.54972" lon="1.10197">
        <ele>158.27</ele>
        <time>2023-10-28T10:39:08Z</time>
      </trkpt>
      <trkpt lat="44.54979" lon="1.1018">
        <ele>158.27</ele>
        <time>2023-10-28T10:39:20Z</time>
      </trkpt>
      <trkpt lat="44.5498" lon="1.10177">
        <ele>158.27</ele>
        <time>2023-10-28T10:39:22Z</time>
      </trkpt>
      <trkpt lat="44.54986" lon="1.10155">
        <ele>158.27</ele>
        <time>2023-10-28T10:39:38Z</time>
      </trkpt>
      <trkpt lat="44.54986" lon="1.10153">
        <ele>158.27</ele>
        <time>2023-10-28T10:39:40Z</time>
      </trkpt>
      <trkpt lat="44.54993" lon="1.10131">
        <ele>158.27</ele>
        <time>2023-10-28T10:39:55Z</time>
      </trkpt>
      <trkpt lat="44.54997" lon="1.10111">
        <ele>158.27</ele>
        <time>2023-10-28T10:40:13Z</time>
      </trkpt>
      <trkpt lat="44.54997" lon="1.10109">
        <ele>158.27</ele>
        <time>2023-10-28T10:40:16Z</time>
      </trkpt>
      <trkpt lat="44.55007" lon="1.1009">
        <ele>158.27</ele>
        <time>2023-10-28T10:40:31Z</time>
      </trkpt>
      <trkpt lat="44.55014" lon="1.10078">
        <ele>158.27</ele>
        <time>2023-10-28T10:40:42Z</time>
      </trkpt>
      <trkpt lat="44.55016" lon="1.10074">
        <ele>158.27</ele>
        <time>2023-10-28T10:40:46Z</time>
      </trkpt>
      <trkpt lat="44.5503" lon="1.10058">
        <ele>158.27</ele>
        <time>2023-10-28T10:41:02Z</time>
      </trkpt>
      <trkpt lat="44.55043" lon="1.10039">
        <ele>159.72</ele>
        <time>2023-10-28T10:41:19Z</time>
      </trkpt>
      <trkpt lat="44.55053" lon="1.10026">
        <ele>160.2</ele>
        <time>2023-10-28T10:41:34Z</time>
      </trkpt>
      <trkpt lat="44.55059" lon="1.10016">
        <ele>160.2</ele>
        <time>2023-10-28T10:41:48Z</time>
      </trkpt>
      <trkpt lat="44.55061" lon="1.10018">
        <ele>160.2</ele>
        <time>2023-10-28T10:42:05Z</time>
      </trkpt>
      <trkpt lat="44.55061" lon="1.10018">
        <ele>160.2</ele>
        <time>2023-10-28T10:42:32Z</time>
      </trkpt>
      <trkpt lat="44.55061" lon="1.10015">
        <ele>160.2</ele>
        <time>2023-10-28T10:42:56Z</time>
      </trkpt>
      <trkpt lat="44.55065" lon="1.10007">
        <ele>160.68</ele>
        <time>2023-10-28T10:43:12Z</time>
      </trkpt>
      <trkpt lat="44.55073" lon="1.09996">
        <ele>162.6</ele>
        <time>2023-10-28T10:43:28Z</time>
      </trkpt>
      <trkpt lat="44.5508" lon="1.09984">
        <ele>164.04</ele>
        <time>2023-10-28T10:43:43Z</time>
      </trkpt>
      <trkpt lat="44.55089" lon="1.09969">
        <ele>164.04</ele>
        <time>2023-10-28T10:43:58Z</time>
      </trkpt>
      <trkpt lat="44.55091" lon="1.09949">
        <ele>164.52</ele>
        <time>2023-10-28T10:44:14Z</time>
      </trkpt>
      <trkpt lat="44.55088" lon="1.09933">
        <ele>166.45</ele>
        <time>2023-10-28T10:44:29Z</time>
      </trkpt>
      <trkpt lat="44.55083" lon="1.0992">
        <ele>168.37</ele>
        <time>2023-10-28T10:44:45Z</time>
      </trkpt>
      <trkpt lat="44.55077" lon="1.09907">
        <ele>170.29</ele>
        <time>2023-10-28T10:45:01Z</time>
      </trkpt>
      <trkpt lat="44.55074" lon="1.09894">
        <ele>171.25</ele>
        <time>2023-10-28T10:45:18Z</time>
      </trkpt>
      <trkpt lat="44.55074" lon="1.09885">
        <ele>172.21</ele>
        <time>2023-10-28T10:45:29Z</time>
      </trkpt>
      <trkpt lat="44.55074" lon="1.09874">
        <ele>173.17</ele>
        <time>2023-10-28T10:45:43Z</time>
      </trkpt>
      <trkpt lat="44.55073" lon="1.09861">
        <ele>173.17</ele>
        <time>2023-10-28T10:46:02Z</time>
      </trkpt>
      <trkpt lat="44.55073" lon="1.09852">
        <ele>173.66</ele>
        <time>2023-10-28T10:46:17Z</time>
      </trkpt>
      <trkpt lat="44.55071" lon="1.0984">
        <ele>174.14</ele>
        <time>2023-10-28T10:46:32Z</time>
      </trkpt>
      <trkpt lat="44.55073" lon="1.09838">
        <ele>174.62</ele>
        <time>2023-10-28T10:46:48Z</time>
      </trkpt>
      <trkpt lat="44.55071" lon="1.09829">
        <ele>175.1</ele>
        <time>2023-10-28T10:47:03Z</time>
      </trkpt>
      <trkpt lat="44.55068" lon="1.0982">
        <ele>176.54</ele>
        <time>2023-10-28T10:47:20Z</time>
      </trkpt>
      <trkpt lat="44.55065" lon="1.09808">
        <ele>177.02</ele>
        <time>2023-10-28T10:47:38Z</time>
      </trkpt>
      <trkpt lat="44.55064" lon="1.09809">
        <ele>178.46</ele>
        <time>2023-10-28T10:47:57Z</time>
      </trkpt>
      <trkpt lat="44.55066" lon="1.09803">
        <ele>178.46</ele>
        <time>2023-10-28T10:48:17Z</time>
      </trkpt>
      <trkpt lat="44.55069" lon="1.09787">
        <ele>178.94</ele>
        <time>2023-10-28T10:48:35Z</time>
      </trkpt>
      <trkpt lat="44.55068" lon="1.09775">
        <ele>179.42</ele>
        <time>2023-10-28T10:48:54Z</time>
      </trkpt>
      <trkpt lat="44.55068" lon="1.09776">
        <ele>179.42</ele>
        <time>2023-10-28T10:49:11Z</time>
      </trkpt>
      <trkpt lat="44.55064" lon="1.09774">
        <ele>180.87</ele>
        <time>2023-10-28T10:49:31Z</time>
      </trkpt>
      <trkpt lat="44.55067" lon="1.09775">
        <ele>180.87</ele>
        <time>2023-10-28T10:49:51Z</time>
      </trkpt>
      <trkpt lat="44.55064" lon="1.09762">
        <ele>181.83</ele>
        <time>2023-10-28T10:50:07Z</time>
      </trkpt>
      <trkpt lat="44.55062" lon="1.09748">
        <ele>183.75</ele>
        <time>2023-10-28T10:50:22Z</time>
      </trkpt>
      <trkpt lat="44.55062" lon="1.09733">
        <ele>185.19</ele>
        <time>2023-10-28T10:50:37Z</time>
      </trkpt>
      <trkpt lat="44.55063" lon="1.09729">
        <ele>186.15</ele>
        <time>2023-10-28T10:50:53Z</time>
      </trkpt>
      <trkpt lat="44.55062" lon="1.09719">
        <ele>187.59</ele>
        <time>2023-10-28T10:51:08Z</time>
      </trkpt>
      <trkpt lat="44.55063" lon="1.09706">
        <ele>188.56</ele>
        <time>2023-10-28T10:51:22Z</time>
      </trkpt>
      <trkpt lat="44.55053" lon="1.09692">
        <ele>189.04</ele>
        <time>2023-10-28T10:51:37Z</time>
      </trkpt>
      <trkpt lat="44.55045" lon="1.09684">
        <ele>189.52</ele>
        <time>2023-10-28T10:51:50Z</time>
      </trkpt>
      <trkpt lat="44.55032" lon="1.09672">
        <ele>190.48</ele>
        <time>2023-10-28T10:52:06Z</time>
      </trkpt>
      <trkpt lat="44.55021" lon="1.09665">
        <ele>190.48</ele>
        <time>2023-10-28T10:52:20Z</time>
      </trkpt>
      <trkpt lat="44.55011" lon="1.09654">
        <ele>191.92</ele>
        <time>2023-10-28T10:52:36Z</time>
      </trkpt>
      <trkpt lat="44.55011" lon="1.09635">
        <ele>193.84</ele>
        <time>2023-10-28T10:52:54Z</time>
      </trkpt>
      <trkpt lat="44.55003" lon="1.09631">
        <ele>195.28</ele>
        <time>2023-10-28T10:53:09Z</time>
      </trkpt>
      <trkpt lat="44.54997" lon="1.09623">
        <ele>196.73</ele>
        <time>2023-10-28T10:53:24Z</time>
      </trkpt>
      <trkpt lat="44.54998" lon="1.09612">
        <ele>198.65</ele>
        <time>2023-10-28T10:53:40Z</time>
      </trkpt>
      <trkpt lat="44.54995" lon="1.09599">
        <ele>199.61</ele>
        <time>2023-10-28T10:53:55Z</time>
      </trkpt>
      <trkpt lat="44.54987" lon="1.09596">
        <ele>201.05</ele>
        <time>2023-10-28T10:54:09Z</time>
      </trkpt>
      <trkpt lat="44.54983" lon="1.09594">
        <ele>201.05</ele>
        <time>2023-10-28T10:54:29Z</time>
      </trkpt>
      <trkpt lat="44.54978" lon="1.09602">
        <ele>202.01</ele>
        <time>2023-10-28T10:54:45Z</time>
      </trkpt>
      <trkpt lat="44.54976" lon="1.09604">
        <ele>202.01</ele>
        <time>2023-10-28T10:54:48Z</time>
      </trkpt>
      <trkpt lat="44.54966" lon="1.09615">
        <ele>203.46</ele>
        <time>2023-10-28T10:55:03Z</time>
      </trkpt>
      <trkpt lat="44.54957" lon="1.09624">
        <ele>205.38</ele>
        <time>2023-10-28T10:55:19Z</time>
      </trkpt>
      <trkpt lat="44.54945" lon="1.09631">
        <ele>206.34</ele>
        <time>2023-10-28T10:55:36Z</time>
      </trkpt>
      <trkpt lat="44.54933" lon="1.09631">
        <ele>207.78</ele>
        <time>2023-10-28T10:55:52Z</time>
      </trkpt>
      <trkpt lat="44.54922" lon="1.09631">
        <ele>209.22</ele>
        <time>2023-10-28T10:56:08Z</time>
      </trkpt>
      <trkpt lat="44.54913" lon="1.09626">
        <ele>210.19</ele>
        <time>2023-10-28T10:56:24Z</time>
      </trkpt>
      <trkpt lat="44.54903" lon="1.09619">
        <ele>211.63</ele>
        <time>2023-10-28T10:56:40Z</time>
      </trkpt>
      <trkpt lat="44.54893" lon="1.0961">
        <ele>213.55</ele>
        <time>2023-10-28T10:56:55Z</time>
      </trkpt>
      <trkpt lat="44.54885" lon="1.09604">
        <ele>214.51</ele>
        <time>2023-10-28T10:57:07Z</time>
      </trkpt>
      <trkpt lat="44.54881" lon="1.096">
        <ele>214.99</ele>
        <time>2023-10-28T10:57:13Z</time>
      </trkpt>
      <trkpt lat="44.5487" lon="1.09593">
        <ele>215.95</ele>
        <time>2023-10-28T10:57:29Z</time>
      </trkpt>
      <trkpt lat="44.54863" lon="1.0959">
        <ele>216.43</ele>
        <time>2023-10-28T10:57:37Z</time>
      </trkpt>
      <trkpt lat="44.5486" lon="1.09589">
        <ele>216.43</ele>
        <time>2023-10-28T10:57:40Z</time>
      </trkpt>
      <trkpt lat="44.54854" lon="1.09588">
        <ele>216.91</ele>
        <time>2023-10-28T10:57:46Z</time>
      </trkpt>
      <trkpt lat="44.54838" lon="1.09587">
        <ele>217.88</ele>
        <time>2023-10-28T10:58:03Z</time>
      </trkpt>
      <trkpt lat="44.54825" lon="1.09587">
        <ele>219.32</ele>
        <time>2023-10-28T10:58:19Z</time>
      </trkpt>
      <trkpt lat="44.54811" lon="1.09587">
        <ele>220.28</ele>
        <time>2023-10-28T10:58:34Z</time>
      </trkpt>
      <trkpt lat="44.54803" lon="1.09585">
        <ele>220.76</ele>
        <time>2023-10-28T10:58:46Z</time>
      </trkpt>
      <trkpt lat="44.54789" lon="1.09583">
        <ele>221.24</ele>
        <time>2023-10-28T10:59:01Z</time>
      </trkpt>
      <trkpt lat="44.54778" lon="1.09581">
        <ele>222.2</ele>
        <time>2023-10-28T10:59:13Z</time>
      </trkpt>
      <trkpt lat="44.54768" lon="1.09582">
        <ele>223.16</ele>
        <time>2023-10-28T10:59:28Z</time>
      </trkpt>
      <trkpt lat="44.54757" lon="1.09579">
        <ele>224.61</ele>
        <time>2023-10-28T10:59:42Z</time>
      </trkpt>
      <trkpt lat="44.54745" lon="1.09578">
        <ele>226.05</ele>
        <time>2023-10-28T10:59:58Z</time>
      </trkpt>
      <trkpt lat="44.54735" lon="1.09575">
        <ele>227.01</ele>
        <time>2023-10-28T11:00:12Z</time>
      </trkpt>
      <trkpt lat="44.54724" lon="1.09571">
        <ele>227.49</ele>
        <time>2023-10-28T11:00:26Z</time>
      </trkpt>
      <trkpt lat="44.54714" lon="1.09568">
        <ele>228.45</ele>
        <time>2023-10-28T11:00:40Z</time>
      </trkpt>
      <trkpt lat="44.54703" lon="1.09563">
        <ele>229.41</ele>
        <time>2023-10-28T11:00:55Z</time>
      </trkpt>
      <trkpt lat="44.54691" lon="1.09559">
        <ele>229.89</ele>
        <time>2023-10-28T11:01:11Z</time>
      </trkpt>
      <trkpt lat="44.54683" lon="1.09555">
        <ele>229.89</ele>
        <time>2023-10-28T11:01:23Z</time>
      </trkpt>
      <trkpt lat="44.54676" lon="1.0955">
        <ele>228.45</ele>
        <time>2023-10-28T11:01:31Z</time>
      </trkpt>
      <trkpt lat="44.54664" lon="1.09546">
        <ele>227.01</ele>
        <time>2023-10-28T11:01:46Z</time>
      </trkpt>
      <trkpt lat="44.54651" lon="1.0954">
        <ele>225.57</ele>
        <time>2023-10-28T11:02:01Z</time>
      </trkpt>
      <trkpt lat="44.54636" lon="1.09534">
        <ele>224.61</ele>
        <time>2023-10-28T11:02:18Z</time>
      </trkpt>
      <trkpt lat="44.54624" lon="1.09526">
        <ele>222.68</ele>
        <time>2023-10-28T11:02:36Z</time>
      </trkpt>
      <trkpt lat="44.54609" lon="1.09519">
        <ele>220.76</ele>
        <time>2023-10-28T11:02:52Z</time>
      </trkpt>
      <trkpt lat="44.54598" lon="1.09513">
        <ele>219.8</ele>
        <time>2023-10-28T11:03:05Z</time>
      </trkpt>
      <trkpt lat="44.54592" lon="1.0951">
        <ele>218.84</ele>
        <time>2023-10-28T11:03:11Z</time>
      </trkpt>
      <trkpt lat="44.54578" lon="1.09501">
        <ele>217.88</ele>
        <time>2023-10-28T11:03:26Z</time>
      </trkpt>
      <trkpt lat="44.54563" lon="1.0949">
        <ele>216.91</ele>
        <time>2023-10-28T11:03:43Z</time>
      </trkpt>
      <trkpt lat="44.54549" lon="1.09476">
        <ele>216.91</ele>
        <time>2023-10-28T11:03:58Z</time>
      </trkpt>
      <trkpt lat="44.54539" lon="1.09462">
        <ele>216.43</ele>
        <time>2023-10-28T11:04:13Z</time>
      </trkpt>
      <trkpt lat="44.54538" lon="1.09462">
        <ele>216.43</ele>
        <time>2023-10-28T11:04:20Z</time>
      </trkpt>
      <trkpt lat="44.54524" lon="1.09445">
        <ele>217.4</ele>
        <time>2023-10-28T11:04:37Z</time>
      </trkpt>
      <trkpt lat="44.54515" lon="1.09432">
        <ele>219.32</ele>
        <time>2023-10-28T11:04:51Z</time>
      </trkpt>
      <trkpt lat="44.54506" lon="1.09418">
        <ele>220.76</ele>
        <time>2023-10-28T11:05:06Z</time>
      </trkpt>
      <trkpt lat="44.545" lon="1.09409">
        <ele>222.68</ele>
        <time>2023-10-28T11:05:21Z</time>
      </trkpt>
      <trkpt lat="44.54492" lon="1.09397">
        <ele>223.16</ele>
        <time>2023-10-28T11:05:35Z</time>
      </trkpt>
      <trkpt lat="44.54483" lon="1.09387">
        <ele>224.12</ele>
        <time>2023-10-28T11:05:48Z</time>
      </trkpt>
      <trkpt lat="44.54475" lon="1.09377">
        <ele>224.61</ele>
        <time>2023-10-28T11:06:03Z</time>
      </trkpt>
      <trkpt lat="44.54466" lon="1.09367">
        <ele>225.57</ele>
        <time>2023-10-28T11:06:19Z</time>
      </trkpt>
      <trkpt lat="44.54458" lon="1.09356">
        <ele>227.01</ele>
        <time>2023-10-28T11:06:34Z</time>
      </trkpt>
      <trkpt lat="44.54451" lon="1.09345">
        <ele>227.49</ele>
        <time>2023-10-28T11:06:48Z</time>
      </trkpt>
      <trkpt lat="44.54444" lon="1.09332">
        <ele>228.93</ele>
        <time>2023-10-28T11:07:03Z</time>
      </trkpt>
      <trkpt lat="44.54441" lon="1.09323">
        <ele>231.33</ele>
        <time>2023-10-28T11:07:15Z</time>
      </trkpt>
      <trkpt lat="44.5444" lon="1.09321">
        <ele>229.89</ele>
        <time>2023-10-28T11:07:18Z</time>
      </trkpt>
      <trkpt lat="44.54433" lon="1.09309">
        <ele>229.89</ele>
        <time>2023-10-28T11:07:32Z</time>
      </trkpt>
      <trkpt lat="44.54424" lon="1.09294">
        <ele>230.85</ele>
        <time>2023-10-28T11:07:47Z</time>
      </trkpt>
      <trkpt lat="44.54416" lon="1.0929">
        <ele>231.33</ele>
        <time>2023-10-28T11:08:00Z</time>
      </trkpt>
      <trkpt lat="44.54416" lon="1.09286">
        <ele>231.33</ele>
        <time>2023-10-28T11:08:16Z</time>
      </trkpt>
      <trkpt lat="44.54409" lon="1.09295">
        <ele>231.81</ele>
        <time>2023-10-28T11:08:30Z</time>
      </trkpt>
      <trkpt lat="44.54404" lon="1.09302">
        <ele>232.3</ele>
        <time>2023-10-28T11:08:45Z</time>
      </trkpt>
      <trkpt lat="44.54393" lon="1.0931">
        <ele>233.26</ele>
        <time>2023-10-28T11:09:01Z</time>
      </trkpt>
      <trkpt lat="44.54391" lon="1.09315">
        <ele>234.22</ele>
        <time>2023-10-28T11:09:16Z</time>
      </trkpt>
      <trkpt lat="44.54379" lon="1.09321">
        <ele>235.18</ele>
        <time>2023-10-28T11:09:33Z</time>
      </trkpt>
      <trkpt lat="44.54365" lon="1.09327">
        <ele>236.62</ele>
        <time>2023-10-28T11:09:50Z</time>
      </trkpt>
      <trkpt lat="44.54354" lon="1.09335">
        <ele>237.58</ele>
        <time>2023-10-28T11:10:05Z</time>
      </trkpt>
      <trkpt lat="44.54341" lon="1.09342">
        <ele>239.02</ele>
        <time>2023-10-28T11:10:21Z</time>
      </trkpt>
      <trkpt lat="44.54328" lon="1.0935">
        <ele>239.99</ele>
        <time>2023-10-28T11:10:35Z</time>
      </trkpt>
      <trkpt lat="44.54327" lon="1.09351">
        <ele>240.47</ele>
        <time>2023-10-28T11:10:37Z</time>
      </trkpt>
      <trkpt lat="44.54312" lon="1.09353">
        <ele>241.43</ele>
        <time>2023-10-28T11:10:54Z</time>
      </trkpt>
      <trkpt lat="44.54309" lon="1.09342">
        <ele>241.91</ele>
        <time>2023-10-28T11:11:10Z</time>
      </trkpt>
      <trkpt lat="44.5431" lon="1.09338">
        <ele>240.47</ele>
        <time>2023-10-28T11:11:14Z</time>
      </trkpt>
      <trkpt lat="44.5431" lon="1.09324">
        <ele>239.51</ele>
        <time>2023-10-28T11:11:30Z</time>
      </trkpt>
      <trkpt lat="44.54311" lon="1.09307">
        <ele>238.06</ele>
        <time>2023-10-28T11:11:44Z</time>
      </trkpt>
      <trkpt lat="44.54312" lon="1.09295">
        <ele>236.62</ele>
        <time>2023-10-28T11:12:00Z</time>
      </trkpt>
      <trkpt lat="44.54313" lon="1.09285">
        <ele>236.14</ele>
        <time>2023-10-28T11:12:21Z</time>
      </trkpt>
      <trkpt lat="44.54314" lon="1.09279">
        <ele>235.66</ele>
        <time>2023-10-28T11:12:41Z</time>
      </trkpt>
      <trkpt lat="44.54312" lon="1.09271">
        <ele>235.18</ele>
        <time>2023-10-28T11:12:59Z</time>
      </trkpt>
      <trkpt lat="44.54313" lon="1.09257">
        <ele>234.7</ele>
        <time>2023-10-28T11:13:15Z</time>
      </trkpt>
      <trkpt lat="44.54311" lon="1.09242">
        <ele>233.74</ele>
        <time>2023-10-28T11:13:30Z</time>
      </trkpt>
      <trkpt lat="44.5431" lon="1.09232">
        <ele>233.26</ele>
        <time>2023-10-28T11:13:44Z</time>
      </trkpt>
      <trkpt lat="44.54307" lon="1.09217">
        <ele>231.81</ele>
        <time>2023-10-28T11:13:58Z</time>
      </trkpt>
      <trkpt lat="44.54305" lon="1.09198">
        <ele>230.85</ele>
        <time>2023-10-28T11:14:14Z</time>
      </trkpt>
      <trkpt lat="44.54304" lon="1.09181">
        <ele>229.89</ele>
        <time>2023-10-28T11:14:28Z</time>
      </trkpt>
      <trkpt lat="44.54302" lon="1.09161">
        <ele>229.89</ele>
        <time>2023-10-28T11:14:44Z</time>
      </trkpt>
      <trkpt lat="44.54298" lon="1.09147">
        <ele>229.89</ele>
        <time>2023-10-28T11:14:57Z</time>
      </trkpt>
      <trkpt lat="44.54298" lon="1.09139">
        <ele>229.89</ele>
        <time>2023-10-28T11:15:10Z</time>
      </trkpt>
      <trkpt lat="44.54297" lon="1.09136">
        <ele>229.41</ele>
        <time>2023-10-28T11:15:13Z</time>
      </trkpt>
      <trkpt lat="44.54297" lon="1.09115">
        <ele>228.93</ele>
        <time>2023-10-28T11:15:27Z</time>
      </trkpt>
      <trkpt lat="44.54296" lon="1.091">
        <ele>228.45</ele>
        <time>2023-10-28T11:15:41Z</time>
      </trkpt>
      <trkpt lat="44.54296" lon="1.09083">
        <ele>227.97</ele>
        <time>2023-10-28T11:15:56Z</time>
      </trkpt>
      <trkpt lat="44.54298" lon="1.09066">
        <ele>227.97</ele>
        <time>2023-10-28T11:16:12Z</time>
      </trkpt>
      <trkpt lat="44.54303" lon="1.09056">
        <ele>227.97</ele>
        <time>2023-10-28T11:16:25Z</time>
      </trkpt>
      <trkpt lat="44.54304" lon="1.09054">
        <ele>229.89</ele>
        <time>2023-10-28T11:16:37Z</time>
      </trkpt>
      <trkpt lat="44.54304" lon="1.09053">
        <ele>227.97</ele>
        <time>2023-10-28T11:16:40Z</time>
      </trkpt>
      <trkpt lat="44.54306" lon="1.0904">
        <ele>227.97</ele>
        <time>2023-10-28T11:16:53Z</time>
      </trkpt>
      <trkpt lat="44.54308" lon="1.09018">
        <ele>227.97</ele>
        <time>2023-10-28T11:17:09Z</time>
      </trkpt>
      <trkpt lat="44.5431" lon="1.09004">
        <ele>227.97</ele>
        <time>2023-10-28T11:17:21Z</time>
      </trkpt>
      <trkpt lat="44.54309" lon="1.08984">
        <ele>227.97</ele>
        <time>2023-10-28T11:17:37Z</time>
      </trkpt>
      <trkpt lat="44.54307" lon="1.08973">
        <ele>227.97</ele>
        <time>2023-10-28T11:17:51Z</time>
      </trkpt>
      <trkpt lat="44.54304" lon="1.08974">
        <ele>229.41</ele>
        <time>2023-10-28T11:17:57Z</time>
      </trkpt>
      <trkpt lat="44.54292" lon="1.08984">
        <ele>230.85</ele>
        <time>2023-10-28T11:18:14Z</time>
      </trkpt>
      <trkpt lat="44.54281" lon="1.08992">
        <ele>231.81</ele>
        <time>2023-10-28T11:18:31Z</time>
      </trkpt>
      <trkpt lat="44.54271" lon="1.0899">
        <ele>233.26</ele>
        <time>2023-10-28T11:18:47Z</time>
      </trkpt>
      <trkpt lat="44.54267" lon="1.08989">
        <ele>233.74</ele>
        <time>2023-10-28T11:19:03Z</time>
      </trkpt>
      <trkpt lat="44.54259" lon="1.08978">
        <ele>233.74</ele>
        <time>2023-10-28T11:19:17Z</time>
      </trkpt>
      <trkpt lat="44.54252" lon="1.08973">
        <ele>233.74</ele>
        <time>2023-10-28T11:19:26Z</time>
      </trkpt>
      <trkpt lat="44.54238" lon="1.08964">
        <ele>233.74</ele>
        <time>2023-10-28T11:19:41Z</time>
      </trkpt>
      <trkpt lat="44.54227" lon="1.08959">
        <ele>232.3</ele>
        <time>2023-10-28T11:19:53Z</time>
      </trkpt>
      <trkpt lat="44.54218" lon="1.08955">
        <ele>231.81</ele>
        <time>2023-10-28T11:20:02Z</time>
      </trkpt>
      <trkpt lat="44.54215" lon="1.08954">
        <ele>231.81</ele>
        <time>2023-10-28T11:20:05Z</time>
      </trkpt>
      <trkpt lat="44.54202" lon="1.08946">
        <ele>230.85</ele>
        <time>2023-10-28T11:20:21Z</time>
      </trkpt>
      <trkpt lat="44.5419" lon="1.08939">
        <ele>230.85</ele>
        <time>2023-10-28T11:20:34Z</time>
      </trkpt>
      <trkpt lat="44.54177" lon="1.08932">
        <ele>230.85</ele>
        <time>2023-10-28T11:20:48Z</time>
      </trkpt>
      <trkpt lat="44.54166" lon="1.08926">
        <ele>229.89</ele>
        <time>2023-10-28T11:21:01Z</time>
      </trkpt>
      <trkpt lat="44.54156" lon="1.0892">
        <ele>229.89</ele>
        <time>2023-10-28T11:21:14Z</time>
      </trkpt>
      <trkpt lat="44.54145" lon="1.08914">
        <ele>229.89</ele>
        <time>2023-10-28T11:21:29Z</time>
      </trkpt>
      <trkpt lat="44.54133" lon="1.08907">
        <ele>229.89</ele>
        <time>2023-10-28T11:21:43Z</time>
      </trkpt>
      <trkpt lat="44.54126" lon="1.08897">
        <ele>229.89</ele>
        <time>2023-10-28T11:21:53Z</time>
      </trkpt>
      <trkpt lat="44.54125" lon="1.08884">
        <ele>229.41</ele>
        <time>2023-10-28T11:22:08Z</time>
      </trkpt>
      <trkpt lat="44.54136" lon="1.08886">
        <ele>228.45</ele>
        <time>2023-10-28T11:22:22Z</time>
      </trkpt>
      <trkpt lat="44.54145" lon="1.08885">
        <ele>227.01</ele>
        <time>2023-10-28T11:22:37Z</time>
      </trkpt>
      <trkpt lat="44.54152" lon="1.0888">
        <ele>224.61</ele>
        <time>2023-10-28T11:22:53Z</time>
      </trkpt>
      <trkpt lat="44.54159" lon="1.08877">
        <ele>223.16</ele>
        <time>2023-10-28T11:23:07Z</time>
      </trkpt>
      <trkpt lat="44.54172" lon="1.08873">
        <ele>220.76</ele>
        <time>2023-10-28T11:23:27Z</time>
      </trkpt>
      <trkpt lat="44.54176" lon="1.08871">
        <ele>219.8</ele>
        <time>2023-10-28T11:23:40Z</time>
      </trkpt>
      <trkpt lat="44.54181" lon="1.0887">
        <ele>218.36</ele>
        <time>2023-10-28T11:23:54Z</time>
      </trkpt>
      <trkpt lat="44.54199" lon="1.08865">
        <ele>216.91</ele>
        <time>2023-10-28T11:24:13Z</time>
      </trkpt>
      <trkpt lat="44.5421" lon="1.08864">
        <ele>215.95</ele>
        <time>2023-10-28T11:24:26Z</time>
      </trkpt>
      <trkpt lat="44.54219" lon="1.08855">
        <ele>214.51</ele>
        <time>2023-10-28T11:24:41Z</time>
      </trkpt>
      <trkpt lat="44.54227" lon="1.08848">
        <ele>214.03</ele>
        <time>2023-10-28T11:24:54Z</time>
      </trkpt>
      <trkpt lat="44.54242" lon="1.08837">
        <ele>213.07</ele>
        <time>2023-10-28T11:25:10Z</time>
      </trkpt>
      <trkpt lat="44.54255" lon="1.0883">
        <ele>212.59</ele>
        <time>2023-10-28T11:25:24Z</time>
      </trkpt>
      <trkpt lat="44.54265" lon="1.08819">
        <ele>212.59</ele>
        <time>2023-10-28T11:25:39Z</time>
      </trkpt>
      <trkpt lat="44.54274" lon="1.08808">
        <ele>212.59</ele>
        <time>2023-10-28T11:25:54Z</time>
      </trkpt>
      <trkpt lat="44.54269" lon="1.08793">
        <ele>211.15</ele>
        <time>2023-10-28T11:26:10Z</time>
      </trkpt>
      <trkpt lat="44.54262" lon="1.08774">
        <ele>208.74</ele>
        <time>2023-10-28T11:26:25Z</time>
      </trkpt>
      <trkpt lat="44.54258" lon="1.08755">
        <ele>207.78</ele>
        <time>2023-10-28T11:26:41Z</time>
      </trkpt>
      <trkpt lat="44.54254" lon="1.08739">
        <ele>207.78</ele>
        <time>2023-10-28T11:26:55Z</time>
      </trkpt>
      <trkpt lat="44.54248" lon="1.08718">
        <ele>207.78</ele>
        <time>2023-10-28T11:27:09Z</time>
      </trkpt>
      <trkpt lat="44.54243" lon="1.08701">
        <ele>209.22</ele>
        <time>2023-10-28T11:27:24Z</time>
      </trkpt>
      <trkpt lat="44.54239" lon="1.08688">
        <ele>209.7</ele>
        <time>2023-10-28T11:27:38Z</time>
      </trkpt>
      <trkpt lat="44.54238" lon="1.08681">
        <ele>210.19</ele>
        <time>2023-10-28T11:27:57Z</time>
      </trkpt>
      <trkpt lat="44.54237" lon="1.08666">
        <ele>211.63</ele>
        <time>2023-10-28T11:28:13Z</time>
      </trkpt>
      <trkpt lat="44.54235" lon="1.08648">
        <ele>213.07</ele>
        <time>2023-10-28T11:28:27Z</time>
      </trkpt>
      <trkpt lat="44.54234" lon="1.08634">
        <ele>213.55</ele>
        <time>2023-10-28T11:28:42Z</time>
      </trkpt>
      <trkpt lat="44.54235" lon="1.08617">
        <ele>214.99</ele>
        <time>2023-10-28T11:29:06Z</time>
      </trkpt>
      <trkpt lat="44.54235" lon="1.08605">
        <ele>215.95</ele>
        <time>2023-10-28T11:29:26Z</time>
      </trkpt>
      <trkpt lat="44.54229" lon="1.08593">
        <ele>216.43</ele>
        <time>2023-10-28T11:29:39Z</time>
      </trkpt>
      <trkpt lat="44.54224" lon="1.08578">
        <ele>218.36</ele>
        <time>2023-10-28T11:29:55Z</time>
      </trkpt>
      <trkpt lat="44.5422" lon="1.08561">
        <ele>219.32</ele>
        <time>2023-10-28T11:30:10Z</time>
      </trkpt>
      <trkpt lat="44.54216" lon="1.08549">
        <ele>219.8</ele>
        <time>2023-10-28T11:30:22Z</time>
      </trkpt>
      <trkpt lat="44.54209" lon="1.08533">
        <ele>219.32</ele>
        <time>2023-10-28T11:30:35Z</time>
      </trkpt>
      <trkpt lat="44.54207" lon="1.08525">
        <ele>218.36</ele>
        <time>2023-10-28T11:30:41Z</time>
      </trkpt>
      <trkpt lat="44.54203" lon="1.08511">
        <ele>216.91</ele>
        <time>2023-10-28T11:30:53Z</time>
      </trkpt>
      <trkpt lat="44.542" lon="1.08495">
        <ele>216.91</ele>
        <time>2023-10-28T11:31:07Z</time>
      </trkpt>
      <trkpt lat="44.54195" lon="1.08475">
        <ele>215.47</ele>
        <time>2023-10-28T11:31:23Z</time>
      </trkpt>
      <trkpt lat="44.54191" lon="1.08456">
        <ele>214.51</ele>
        <time>2023-10-28T11:31:36Z</time>
      </trkpt>
      <trkpt lat="44.54188" lon="1.08437">
        <ele>214.03</ele>
        <time>2023-10-28T11:31:52Z</time>
      </trkpt>
      <trkpt lat="44.54184" lon="1.0842">
        <ele>213.55</ele>
        <time>2023-10-28T11:32:05Z</time>
      </trkpt>
      <trkpt lat="44.5418" lon="1.08399">
        <ele>213.55</ele>
        <time>2023-10-28T11:32:20Z</time>
      </trkpt>
      <trkpt lat="44.54176" lon="1.08384">
        <ele>213.55</ele>
        <time>2023-10-28T11:32:34Z</time>
      </trkpt>
      <trkpt lat="44.54175" lon="1.08379">
        <ele>214.99</ele>
        <time>2023-10-28T11:32:39Z</time>
      </trkpt>
      <trkpt lat="44.54174" lon="1.08377">
        <ele>213.55</ele>
        <time>2023-10-28T11:32:41Z</time>
      </trkpt>
      <trkpt lat="44.54167" lon="1.08365">
        <ele>214.99</ele>
        <time>2023-10-28T11:32:55Z</time>
      </trkpt>
      <trkpt lat="44.54166" lon="1.08364">
        <ele>214.99</ele>
        <time>2023-10-28T11:32:56Z</time>
      </trkpt>
      <trkpt lat="44.5416" lon="1.08359">
        <ele>215.47</ele>
        <time>2023-10-28T11:33:04Z</time>
      </trkpt>
      <trkpt lat="44.54149" lon="1.0834">
        <ele>216.43</ele>
        <time>2023-10-28T11:33:20Z</time>
      </trkpt>
      <trkpt lat="44.54147" lon="1.08337">
        <ele>214.99</ele>
        <time>2023-10-28T11:33:25Z</time>
      </trkpt>
      <trkpt lat="44.54142" lon="1.08327">
        <ele>216.43</ele>
        <time>2023-10-28T11:33:33Z</time>
      </trkpt>
      <trkpt lat="44.54138" lon="1.0832">
        <ele>216.43</ele>
        <time>2023-10-28T11:33:39Z</time>
      </trkpt>
      <trkpt lat="44.54136" lon="1.08312">
        <ele>217.88</ele>
        <time>2023-10-28T11:33:46Z</time>
      </trkpt>
      <trkpt lat="44.54133" lon="1.08303">
        <ele>215.47</ele>
        <time>2023-10-28T11:33:55Z</time>
      </trkpt>
      <trkpt lat="44.54125" lon="1.08284">
        <ele>216.91</ele>
        <time>2023-10-28T11:34:08Z</time>
      </trkpt>
      <trkpt lat="44.54122" lon="1.0828">
        <ele>217.4</ele>
        <time>2023-10-28T11:34:12Z</time>
      </trkpt>
      <trkpt lat="44.54119" lon="1.08277">
        <ele>217.4</ele>
        <time>2023-10-28T11:34:16Z</time>
      </trkpt>
      <trkpt lat="44.54113" lon="1.08256">
        <ele>217.88</ele>
        <time>2023-10-28T11:34:31Z</time>
      </trkpt>
      <trkpt lat="44.54109" lon="1.08236">
        <ele>217.88</ele>
        <time>2023-10-28T11:34:46Z</time>
      </trkpt>
      <trkpt lat="44.54111" lon="1.08217">
        <ele>218.36</ele>
        <time>2023-10-28T11:35:01Z</time>
      </trkpt>
      <trkpt lat="44.54113" lon="1.08211">
        <ele>218.36</ele>
        <time>2023-10-28T11:35:06Z</time>
      </trkpt>
      <trkpt lat="44.54123" lon="1.08196">
        <ele>218.36</ele>
        <time>2023-10-28T11:35:21Z</time>
      </trkpt>
      <trkpt lat="44.54132" lon="1.0818">
        <ele>217.88</ele>
        <time>2023-10-28T11:35:36Z</time>
      </trkpt>
      <trkpt lat="44.54135" lon="1.08175">
        <ele>216.91</ele>
        <time>2023-10-28T11:35:40Z</time>
      </trkpt>
      <trkpt lat="44.54135" lon="1.08157">
        <ele>216.43</ele>
        <time>2023-10-28T11:35:54Z</time>
      </trkpt>
      <trkpt lat="44.54135" lon="1.0815">
        <ele>216.43</ele>
        <time>2023-10-28T11:35:58Z</time>
      </trkpt>
      <trkpt lat="44.54129" lon="1.0813">
        <ele>215.47</ele>
        <time>2023-10-28T11:36:12Z</time>
      </trkpt>
      <trkpt lat="44.54125" lon="1.08118">
        <ele>214.99</ele>
        <time>2023-10-28T11:36:21Z</time>
      </trkpt>
      <trkpt lat="44.54117" lon="1.08097">
        <ele>214.99</ele>
        <time>2023-10-28T11:36:37Z</time>
      </trkpt>
      <trkpt lat="44.54113" lon="1.08076">
        <ele>213.55</ele>
        <time>2023-10-28T11:36:52Z</time>
      </trkpt>
      <trkpt lat="44.54113" lon="1.08051">
        <ele>213.55</ele>
        <time>2023-10-28T11:37:09Z</time>
      </trkpt>
      <trkpt lat="44.54113" lon="1.08026">
        <ele>212.59</ele>
        <time>2023-10-28T11:37:26Z</time>
      </trkpt>
      <trkpt lat="44.54111" lon="1.08004">
        <ele>212.59</ele>
        <time>2023-10-28T11:37:41Z</time>
      </trkpt>
      <trkpt lat="44.54109" lon="1.07989">
        <ele>211.63</ele>
        <time>2023-10-28T11:37:57Z</time>
      </trkpt>
      <trkpt lat="44.54109" lon="1.07963">
        <ele>211.15</ele>
        <time>2023-10-28T11:38:17Z</time>
      </trkpt>
      <trkpt lat="44.54106" lon="1.07949">
        <ele>210.67</ele>
        <time>2023-10-28T11:38:31Z</time>
      </trkpt>
      <trkpt lat="44.54112" lon="1.07949">
        <ele>212.11</ele>
        <time>2023-10-28T11:38:45Z</time>
      </trkpt>
      <trkpt lat="44.54122" lon="1.07953">
        <ele>214.51</ele>
        <time>2023-10-28T11:38:58Z</time>
      </trkpt>
      <trkpt lat="44.54132" lon="1.07952">
        <ele>216.43</ele>
        <time>2023-10-28T11:39:16Z</time>
      </trkpt>
      <trkpt lat="44.54137" lon="1.07953">
        <ele>217.4</ele>
        <time>2023-10-28T11:39:30Z</time>
      </trkpt>
      <trkpt lat="44.54154" lon="1.07953">
        <ele>218.84</ele>
        <time>2023-10-28T11:39:47Z</time>
      </trkpt>
      <trkpt lat="44.54162" lon="1.07942">
        <ele>219.8</ele>
        <time>2023-10-28T11:40:04Z</time>
      </trkpt>
      <trkpt lat="44.54166" lon="1.07925">
        <ele>220.76</ele>
        <time>2023-10-28T11:40:19Z</time>
      </trkpt>
      <trkpt lat="44.5417" lon="1.07911">
        <ele>221.24</ele>
        <time>2023-10-28T11:40:35Z</time>
      </trkpt>
      <trkpt lat="44.54167" lon="1.07892">
        <ele>222.68</ele>
        <time>2023-10-28T11:40:53Z</time>
      </trkpt>
      <trkpt lat="44.54172" lon="1.07876">
        <ele>223.16</ele>
        <time>2023-10-28T11:41:08Z</time>
      </trkpt>
      <trkpt lat="44.54176" lon="1.07866">
        <ele>224.12</ele>
        <time>2023-10-28T11:41:19Z</time>
      </trkpt>
      <trkpt lat="44.54182" lon="1.07854">
        <ele>224.12</ele>
        <time>2023-10-28T11:41:31Z</time>
      </trkpt>
      <trkpt lat="44.54191" lon="1.07836">
        <ele>224.12</ele>
        <time>2023-10-28T11:41:48Z</time>
      </trkpt>
      <trkpt lat="44.54197" lon="1.07822">
        <ele>223.16</ele>
        <time>2023-10-28T11:42:01Z</time>
      </trkpt>
      <trkpt lat="44.54205" lon="1.0781">
        <ele>222.2</ele>
        <time>2023-10-28T11:42:14Z</time>
      </trkpt>
      <trkpt lat="44.5421" lon="1.07796">
        <ele>221.72</ele>
        <time>2023-10-28T11:42:28Z</time>
      </trkpt>
      <trkpt lat="44.54216" lon="1.07784">
        <ele>220.28</ele>
        <time>2023-10-28T11:42:43Z</time>
      </trkpt>
      <trkpt lat="44.5422" lon="1.07771">
        <ele>219.32</ele>
        <time>2023-10-28T11:42:56Z</time>
      </trkpt>
      <trkpt lat="44.5422" lon="1.07755">
        <ele>216.91</ele>
        <time>2023-10-28T11:43:11Z</time>
      </trkpt>
      <trkpt lat="44.54219" lon="1.07738">
        <ele>214.99</ele>
        <time>2023-10-28T11:43:25Z</time>
      </trkpt>
      <trkpt lat="44.54219" lon="1.07727">
        <ele>213.55</ele>
        <time>2023-10-28T11:43:37Z</time>
      </trkpt>
      <trkpt lat="44.54217" lon="1.07716">
        <ele>212.11</ele>
        <time>2023-10-28T11:43:49Z</time>
      </trkpt>
      <trkpt lat="44.54216" lon="1.07697">
        <ele>209.7</ele>
        <time>2023-10-28T11:44:06Z</time>
      </trkpt>
      <trkpt lat="44.54215" lon="1.07685">
        <ele>208.26</ele>
        <time>2023-10-28T11:44:18Z</time>
      </trkpt>
      <trkpt lat="44.54213" lon="1.07673">
        <ele>206.34</ele>
        <time>2023-10-28T11:44:32Z</time>
      </trkpt>
      <trkpt lat="44.54212" lon="1.07662">
        <ele>204.42</ele>
        <time>2023-10-28T11:44:47Z</time>
      </trkpt>
      <trkpt lat="44.5421" lon="1.0765">
        <ele>202.49</ele>
        <time>2023-10-28T11:45:02Z</time>
      </trkpt>
      <trkpt lat="44.54205" lon="1.07638">
        <ele>200.57</ele>
        <time>2023-10-28T11:45:17Z</time>
      </trkpt>
      <trkpt lat="44.54204" lon="1.07624">
        <ele>198.65</ele>
        <time>2023-10-28T11:45:30Z</time>
      </trkpt>
      <trkpt lat="44.54203" lon="1.07609">
        <ele>197.21</ele>
        <time>2023-10-28T11:45:44Z</time>
      </trkpt>
      <trkpt lat="44.54201" lon="1.07591">
        <ele>195.77</ele>
        <time>2023-10-28T11:45:59Z</time>
      </trkpt>
      <trkpt lat="44.54201" lon="1.0759">
        <ele>195.77</ele>
        <time>2023-10-28T11:46:00Z</time>
      </trkpt>
      <trkpt lat="44.54198" lon="1.07569">
        <ele>193.84</ele>
        <time>2023-10-28T11:46:16Z</time>
      </trkpt>
      <trkpt lat="44.54197" lon="1.07557">
        <ele>192.88</ele>
        <time>2023-10-28T11:46:28Z</time>
      </trkpt>
      <trkpt lat="44.54195" lon="1.07545">
        <ele>190.96</ele>
        <time>2023-10-28T11:46:41Z</time>
      </trkpt>
      <trkpt lat="44.54193" lon="1.0753">
        <ele>190.96</ele>
        <time>2023-10-28T11:46:54Z</time>
      </trkpt>
      <trkpt lat="44.54188" lon="1.07514">
        <ele>190.96</ele>
        <time>2023-10-28T11:47:09Z</time>
      </trkpt>
      <trkpt lat="44.54185" lon="1.07502">
        <ele>192.88</ele>
        <time>2023-10-28T11:47:22Z</time>
      </trkpt>
      <trkpt lat="44.54185" lon="1.07489">
        <ele>193.36</ele>
        <time>2023-10-28T11:47:36Z</time>
      </trkpt>
      <trkpt lat="44.54192" lon="1.07476">
        <ele>195.28</ele>
        <time>2023-10-28T11:47:50Z</time>
      </trkpt>
      <trkpt lat="44.54198" lon="1.07461">
        <ele>196.25</ele>
        <time>2023-10-28T11:48:04Z</time>
      </trkpt>
      <trkpt lat="44.54203" lon="1.07447">
        <ele>197.69</ele>
        <time>2023-10-28T11:48:19Z</time>
      </trkpt>
      <trkpt lat="44.54205" lon="1.07442">
        <ele>198.17</ele>
        <time>2023-10-28T11:48:24Z</time>
      </trkpt>
      <trkpt lat="44.54214" lon="1.07428">
        <ele>198.65</ele>
        <time>2023-10-28T11:48:39Z</time>
      </trkpt>
      <trkpt lat="44.54219" lon="1.07414">
        <ele>199.61</ele>
        <time>2023-10-28T11:48:52Z</time>
      </trkpt>
      <trkpt lat="44.54225" lon="1.074">
        <ele>199.61</ele>
        <time>2023-10-28T11:49:06Z</time>
      </trkpt>
      <trkpt lat="44.54225" lon="1.07385">
        <ele>199.61</ele>
        <time>2023-10-28T11:49:19Z</time>
      </trkpt>
      <trkpt lat="44.54223" lon="1.07381">
        <ele>199.61</ele>
        <time>2023-10-28T11:49:23Z</time>
      </trkpt>
      <trkpt lat="44.54212" lon="1.07367">
        <ele>199.61</ele>
        <time>2023-10-28T11:49:38Z</time>
      </trkpt>
      <trkpt lat="44.54211" lon="1.07369">
        <ele>199.61</ele>
        <time>2023-10-28T11:49:53Z</time>
      </trkpt>
      <trkpt lat="44.5421" lon="1.07369">
        <ele>199.61</ele>
        <time>2023-10-28T11:50:11Z</time>
      </trkpt>
    </trkseg>
  </trk>
</gpx>